Observation data for Dell City 1N on 06/20/2019      Previous  Date  Next       Current Mesonet Observations  Soil Data  Daily Summary Page  Observations in Plain Language
KDC1 200500Z 29006KT 22/01 A2994 RMK A01 T02180010  RH  025%=      5-min Rain = 0
KDC1 200501Z 30006KT 22/01 A2994 RMK A01 T02190010  RH  025%=      5-min Rain = 0
KDC1 200502Z 30006KT 22/01 A2994 RMK A01 T02210011  RH  025%=      5-min Rain = 0
KDC1 200503Z 30007KT 22/01 A2994 RMK A01 T02210013  RH  025%=      5-min Rain = 0
KDC1 200504Z 30007KT 22/02 A2994 RMK A01 T02210015  RH  026%=      5-min Rain = 0
KDC1 200505Z 29008KT 22/02 A2994 RMK A01 T02200017  RH  026%=      5-min Rain = 0
KDC1 200506Z 29008KT 22/02 A2994 RMK A01 T02190017  RH  026%=      5-min Rain = 0
KDC1 200507Z 30008KT 22/02 A2994 RMK A01 T02200017  RH  026%=      5-min Rain = 0
KDC1 200508Z 30009KT 22/02 A2994 RMK A01 T02200017  RH  026%=      5-min Rain = 0
KDC1 200509Z 30009KT 22/02 A2994 RMK A01 T02190016  RH  026%=      5-min Rain = 0
KDC1 200510Z 29010KT 22/01 A2994 RMK A01 T02190014  RH  026%=      5-min Rain = 0
KDC1 200511Z 28010KT 22/01 A2994 RMK A01 T02200010  RH  025%=      5-min Rain = 0
KDC1 200512Z 28009KT 22/01 A2994 RMK A01 T02230007  RH  024%=      5-min Rain = 0
KDC1 200513Z 29009KT 23/01 A2994 RMK A01 T02250006  RH  023%=      5-min Rain = 0
KDC1 200514Z 29008KT 23/01 A2994 RMK A01 T02270005  RH  023%=      5-min Rain = 0
KDC1 200515Z 29008KT 23/00 A2994 RMK A01 T02280003  RH  022%=      5-min Rain = 0
KDC1 200516Z 29006KT 23/00 A2994 RMK A01 T02290003  RH  022%=      5-min Rain = 0
KDC1 200517Z 29006KT 23/01 A2994 RMK A01 T02280005  RH  023%=      5-min Rain = 0
KDC1 200518Z 29007KT 23/01 A2994 RMK A01 T02260006  RH  023%=      5-min Rain = 0
KDC1 200519Z 29008KT 23/01 A2994 RMK A01 T02250008  RH  024%=      5-min Rain = 0
KDC1 200520Z 29008KT 22/01 A2994 RMK A01 T02240010  RH  024%=      5-min Rain = 0
KDC1 200521Z 29008KT 22/01 A2994 RMK A01 T02230009  RH  024%=      5-min Rain = 0
KDC1 200522Z 29008KT 22/01 A2994 RMK A01 T02230008  RH  024%=      5-min Rain = 0
KDC1 200523Z 29007KT 22/01 A2994 RMK A01 T02230007  RH  024%=      5-min Rain = 0
KDC1 200524Z 29007KT 22/01 A2994 RMK A01 T02230006  RH  024%=      5-min Rain = 0
KDC1 200525Z 29007KT 22/01 A2994 RMK A01 T02230006  RH  024%=      5-min Rain = 0
KDC1 200526Z 29006KT 22/01 A2994 RMK A01 T02230006  RH  024%=      5-min Rain = 0
KDC1 200527Z 29006KT 22/01 A2994 RMK A01 T02230006  RH  024%=      5-min Rain = 0
KDC1 200528Z 30005KT 22/01 A2995 RMK A01 T02220005  RH  024%=      5-min Rain = 0
KDC1 200529Z 30005KT 22/01 A2995 RMK A01 T02210006  RH  024%=      5-min Rain = 0
KDC1 200530Z 29004KT 22/01 A2995 RMK A01 T02200006  RH  024%=      5-min Rain = 0
KDC1 200531Z 28002KT 22/01 A2995 RMK A01 T02190006  RH  024%=      5-min Rain = 0
KDC1 200532Z 26000KT 22/02 A2995 RMK A01 T02180023  RH  028%=      5-min Rain = 0
KDC1 200533Z 03000KT 22/02 A2995 RMK A01 T02170015  RH  026%=      5-min Rain = 0
KDC1 200534Z 07001KT 22/03 A2995 RMK A01 T02170029  RH  029%=      5-min Rain = 0
KDC1 200535Z 07001KT 22/03 A2995 RMK A01 T02150028  RH  029%=      5-min Rain = 0
KDC1 200536Z 09002KT 21/03 A2995 RMK A01 T02140028  RH  029%=      5-min Rain = 0
KDC1 200537Z 07003KT 21/03 A2995 RMK A01 T02130029  RH  030%=      5-min Rain = 0
KDC1 200538Z 07004KT 21/03 A2995 RMK A01 T02120029  RH  030%=      5-min Rain = 0
KDC1 200539Z 04004KT 21/03 A2995 RMK A01 T02110027  RH  030%=      5-min Rain = 0
KDC1 200540Z 03006KT 21/03 A2995 RMK A01 T02090028  RH  030%=      5-min Rain = 0
KDC1 200541Z 03004KT 21/02 A2995 RMK A01 T02080021  RH  029%=      5-min Rain = 0
KDC1 200542Z 04004KT 21/02 A2995 RMK A01 T02100019  RH  028%=      5-min Rain = 0
KDC1 200543Z 03004KT 21/02 A2995 RMK A01 T02120019  RH  028%=      5-min Rain = 0
KDC1 200544Z 03004KT 21/02 A2995 RMK A01 T02120015  RH  027%=      5-min Rain = 0
KDC1 200545Z 02004KT 21/01 A2995 RMK A01 T02130014  RH  027%=      5-min Rain = 0
KDC1 200546Z 01005KT 21/01 A2995 RMK A01 T02140009  RH  026%=      5-min Rain = 0
KDC1 200547Z 03005KT 22/01 A2995 RMK A01 T02150006  RH  025%=      5-min Rain = 0
KDC1 200548Z 03004KT 22/01 A2995 RMK A01 T02170005  RH  024%=      5-min Rain = 0
KDC1 200549Z 01004KT 22/00 A2995 RMK A01 T02180000  RH  023%=      5-min Rain = 0
KDC1 200550Z 01004KT 22/M01 A2995 RMK A01 T02221008  RH  022%=      5-min Rain = 0
KDC1 200551Z 32001KT 23/M01 A2995 RMK A01 T02251006  RH  021%=      5-min Rain = 0
KDC1 200552Z 33002KT 23/M01 A2995 RMK A01 T02281008  RH  021%=      5-min Rain = 0
KDC1 200553Z 02003KT 23/M01 A2995 RMK A01 T02291008  RH  021%=      5-min Rain = 0
KDC1 200554Z 01003KT 23/M01 A2995 RMK A01 T02311008  RH  020%=      5-min Rain = 0
KDC1 200555Z 03002KT 23/M01 A2995 RMK A01 T02311008  RH  020%=      5-min Rain = 0
KDC1 200556Z 05002KT 23/M01 A2995 RMK A01 T02321012  RH  020%=      5-min Rain = 0
KDC1 200557Z 01002KT 23/M01 A2995 RMK A01 T02331012  RH  020%=      5-min Rain = 0
KDC1 200558Z 04003KT 23/M01 A2995 RMK A01 T02341014  RH  019%=      5-min Rain = 0
KDC1 200559Z 05004KT 24/M03 A2995 RMK A01 T02371025  RH  017%=      5-min Rain = 0
KDC1 200600Z 03004KT 24/M01 A2995 RMK A01 T02401014  RH  018%=      5-min Rain = 0
KDC1 200601Z 04004KT 24/M02 A2995 RMK A01 T02401016  RH  018%=      5-min Rain = 0
KDC1 200602Z 04003KT 24/M01 A2995 RMK A01 T02401013  RH  019%=      5-min Rain = 0
KDC1 200603Z 02001KT 24/M01 A2995 RMK A01 T02391009  RH  019%=      5-min Rain = 0
KDC1 200604Z 26001KT 24/M01 A2995 RMK A01 T02361011  RH  019%=      5-min Rain = 0
KDC1 200605Z 05002KT 24/M02 A2995 RMK A01 T02361019  RH  018%=      5-min Rain = 0
KDC1 200606Z 04003KT 24/M02 A2995 RMK A01 T02381022  RH  018%=      5-min Rain = 0
KDC1 200607Z 04002KT 24/M02 A2995 RMK A01 T02421024  RH  017%=      5-min Rain = 0
KDC1 200608Z 02001KT 24/M02 A2995 RMK A01 T02431016  RH  018%=      5-min Rain = 0
KDC1 200609Z 26000KT 24/M00 A2995 RMK A01 T02381002  RH  020%=      5-min Rain = 0
KDC1 200610Z 00000KT 23/M00 A2995 RMK A01 T02341004  RH  021%=      5-min Rain = 0
KDC1 200611Z 07000KT 23/00 A2995 RMK A01 T02310001  RH  022%=      5-min Rain = 0
KDC1 200612Z 06002KT 23/M00 A2995 RMK A01 T02281002  RH  022%=      5-min Rain = 0
KDC1 200613Z 05002KT 23/M00 A2995 RMK A01 T02271003  RH  022%=      5-min Rain = 0
KDC1 200614Z 03000KT 23/M01 A2995 RMK A01 T02261009  RH  021%=      5-min Rain = 0
KDC1 200615Z 02000KT 23/M01 A2995 RMK A01 T02271012  RH  020%=      5-min Rain = 0
KDC1 200616Z 29001KT 23/00 A2995 RMK A01 T02270000  RH  022%=      5-min Rain = 0
KDC1 200617Z 30000KT 23/M01 A2995 RMK A01 T02251006  RH  021%=      5-min Rain = 0
KDC1 200618Z 00000KT 23/M01 A2995 RMK A01 T02261011  RH  021%=      5-min Rain = 0
KDC1 200619Z 00000KT 23/M01 A2995 RMK A01 T02271005  RH  021%=      5-min Rain = 0
KDC1 200620Z 00000KT 23/M01 A2995 RMK A01 T02271005  RH  021%=      5-min Rain = 0
KDC1 200621Z 00000KT 23/00 A2995 RMK A01 T02270000  RH  022%=      5-min Rain = 0
KDC1 200622Z 00000KT 23/00 A2995 RMK A01 T02250002  RH  023%=      5-min Rain = 0
KDC1 200623Z 07001KT 22/M01 A2995 RMK A01 T02241005  RH  022%=      5-min Rain = 0
KDC1 200624Z 02002KT 22/01 A2995 RMK A01 T02240006  RH  024%=      5-min Rain = 0
KDC1 200625Z 34001KT 22/01 A2995 RMK A01 T02200013  RH  025%=      5-min Rain = 0
KDC1 200626Z 07001KT 21/01 A2995 RMK A01 T02140011  RH  026%=      5-min Rain = 0
KDC1 200627Z 05001KT 21/00 A2995 RMK A01 T02120004  RH  025%=      5-min Rain = 0
KDC1 200628Z 33001KT 21/00 A2995 RMK A01 T02120004  RH  025%=      5-min Rain = 0
KDC1 200629Z 06001KT 21/01 A2995 RMK A01 T02130007  RH  025%=      5-min Rain = 0
KDC1 200630Z 05002KT 21/01 A2995 RMK A01 T02140008  RH  025%=      5-min Rain = 0
KDC1 200631Z 03003KT 21/01 A2995 RMK A01 T02140008  RH  025%=      5-min Rain = 0
KDC1 200632Z 03003KT 21/01 A2995 RMK A01 T02140008  RH  025%=      5-min Rain = 0
KDC1 200633Z 04001KT 21/01 A2995 RMK A01 T02130006  RH  025%=      5-min Rain = 0
KDC1 200634Z 28001KT 21/01 A2995 RMK A01 T02140005  RH  025%=      5-min Rain = 0
KDC1 200635Z 29002KT 21/M00 A2995 RMK A01 T02141002  RH  024%=      5-min Rain = 0
KDC1 200636Z 03001KT 22/M01 A2994 RMK A01 T02181009  RH  022%=      5-min Rain = 0
KDC1 200637Z 04001KT 22/M01 A2994 RMK A01 T02211007  RH  022%=      5-min Rain = 0
KDC1 200638Z 03000KT 22/M01 A2994 RMK A01 T02231007  RH  022%=      5-min Rain = 0
KDC1 200639Z 00000KT 22/M01 A2994 RMK A01 T02231005  RH  022%=      5-min Rain = 0
KDC1 200640Z 28000KT 22/M00 A2995 RMK A01 T02231001  RH  023%=      5-min Rain = 0
KDC1 200641Z 31002KT 22/M00 A2995 RMK A01 T02211001  RH  023%=      5-min Rain = 0
KDC1 200642Z 31000KT 22/M00 A2995 RMK A01 T02201001  RH  023%=      5-min Rain = 0
KDC1 200643Z 35001KT 22/00 A2995 RMK A01 T022000-0  RH  023%=      5-min Rain = 0
KDC1 200644Z 34002KT 22/01 A2995 RMK A01 T02200005  RH  024%=      5-min Rain = 0
KDC1 200645Z 01002KT 22/01 A2995 RMK A01 T02170007  RH  025%=      5-min Rain = 0
KDC1 200646Z 04002KT 22/01 A2995 RMK A01 T02160006  RH  025%=      5-min Rain = 0
KDC1 200647Z 05003KT 22/00 A2994 RMK A01 T02160004  RH  024%=      5-min Rain = 0
KDC1 200648Z 06003KT 22/00 A2994 RMK A01 T02160004  RH  024%=      5-min Rain = 0
KDC1 200649Z 05002KT 22/01 A2995 RMK A01 T02160005  RH  025%=      5-min Rain = 0
KDC1 200650Z 05002KT 22/00 A2994 RMK A01 T02150003  RH  024%=      5-min Rain = 0
KDC1 200651Z 05003KT 22/00 A2994 RMK A01 T02150003  RH  024%=      5-min Rain = 0
KDC1 200652Z 06003KT 22/M00 A2994 RMK A01 T02171001  RH  023%=      5-min Rain = 0
KDC1 200653Z 05003KT 22/M00 A2994 RMK A01 T02191001  RH  023%=      5-min Rain = 0
KDC1 200654Z 05003KT 22/M00 A2994 RMK A01 T02201001  RH  023%=      5-min Rain = 0
KDC1 200655Z 07001KT 22/01 A2994 RMK A01 T02200007  RH  024%=      5-min Rain = 0
KDC1 200656Z 06001KT 22/01 A2994 RMK A01 T02170006  RH  025%=      5-min Rain = 0
KDC1 200657Z 04001KT 22/M00 A2994 RMK A01 T02161003  RH  023%=      5-min Rain = 0
KDC1 200658Z 30002KT 22/00 A2994 RMK A01 T02150003  RH  024%=      5-min Rain = 0
KDC1 200659Z 00002KT 21/00 A2994 RMK A01 T02130002  RH  024%=      5-min Rain = 0
KDC1 200700Z 04001KT 21/M01 A2994 RMK A01 T02141005  RH  023%=      5-min Rain = 0
KDC1 200701Z 07001KT 22/M01 A2994 RMK A01 T02151007  RH  023%=      5-min Rain = 0
KDC1 200702Z 06002KT 22/M01 A2994 RMK A01 T02161009  RH  022%=      5-min Rain = 0
KDC1 200703Z 05002KT 22/M01 A2994 RMK A01 T02181009  RH  022%=      5-min Rain = 0
KDC1 200704Z 04000KT 22/M01 A2994 RMK A01 T02191006  RH  022%=      5-min Rain = 0
KDC1 200705Z 02001KT 22/M00 A2994 RMK A01 T02181003  RH  023%=      5-min Rain = 0
KDC1 200706Z 03001KT 22/M01 A2994 RMK A01 T02171008  RH  022%=      5-min Rain = 0
KDC1 200707Z 35002KT 22/M01 A2994 RMK A01 T02191006  RH  022%=      5-min Rain = 0
KDC1 200708Z 28003KT 22/02 A2994 RMK A01 T02160017  RH  027%=      5-min Rain = 0
KDC1 200709Z 28001KT 21/02 A2994 RMK A01 T02080015  RH  028%=      5-min Rain = 0
KDC1 200710Z 01000KT 21/01 A2994 RMK A01 T02050009  RH  027%=      5-min Rain = 0
KDC1 200711Z 33001KT 21/01 A2994 RMK A01 T02050011  RH  027%=      5-min Rain = 0
KDC1 200712Z 28002KT 20/02 A2994 RMK A01 T02040016  RH  028%=      5-min Rain = 0
KDC1 200713Z 28002KT 20/02 A2994 RMK A01 T02040015  RH  028%=      5-min Rain = 0
KDC1 200714Z 26001KT 20/01 A2994 RMK A01 T02040011  RH  028%=      5-min Rain = 0
KDC1 200715Z 27000KT 20/01 A2994 RMK A01 T02040007  RH  027%=      5-min Rain = 0
KDC1 200716Z 33001KT 21/00 A2994 RMK A01 T02050004  RH  026%=      5-min Rain = 0
KDC1 200717Z 29003KT 21/01 A2994 RMK A01 T02050005  RH  026%=      5-min Rain = 0
KDC1 200718Z 30002KT 21/01 A2994 RMK A01 T02050008  RH  027%=      5-min Rain = 0
KDC1 200719Z 30003KT 21/00 A2994 RMK A01 T02060004  RH  026%=      5-min Rain = 0
KDC1 200720Z 29003KT 21/02 A2994 RMK A01 T02050017  RH  029%=      5-min Rain = 0
KDC1 200721Z 31001KT 20/01 A2994 RMK A01 T02020011  RH  028%=      5-min Rain = 0
KDC1 200722Z 29001KT 20/01 A2994 RMK A01 T02010005  RH  027%=      5-min Rain = 0
KDC1 200723Z 28002KT 20/01 A2994 RMK A01 T02020006  RH  027%=      5-min Rain = 0
KDC1 200724Z 28002KT 20/01 A2994 RMK A01 T02030006  RH  027%=      5-min Rain = 0
KDC1 200725Z 30002KT 20/M00 A2994 RMK A01 T02041001  RH  025%=      5-min Rain = 0
KDC1 200726Z 29004KT 21/01 A2994 RMK A01 T02060006  RH  026%=      5-min Rain = 0
KDC1 200727Z 30003KT 20/02 A2994 RMK A01 T02010016  RH  029%=      5-min Rain = 0
KDC1 200728Z 29001KT 20/01 A2994 RMK A01 T01960011  RH  029%=      5-min Rain = 0
KDC1 200729Z 29001KT 20/00 A2994 RMK A01 T01960002  RH  027%=      5-min Rain = 0
KDC1 200730Z 29001KT 20/01 A2994 RMK A01 T01960007  RH  028%=      5-min Rain = 0
KDC1 200731Z 33001KT 20/00 A2994 RMK A01 T01960003  RH  027%=      5-min Rain = 0
KDC1 200732Z 32001KT 20/M00 A2994 RMK A01 T01961003  RH  026%=      5-min Rain = 0
KDC1 200733Z 29003KT 20/00 A2994 RMK A01 T01980004  RH  027%=      5-min Rain = 0
KDC1 200734Z 29002KT 20/01 A2994 RMK A01 T01950014  RH  030%=      5-min Rain = 0
KDC1 200735Z 28002KT 19/02 A2994 RMK A01 T01910015  RH  031%=      5-min Rain = 0
KDC1 200736Z 29002KT 19/01 A2994 RMK A01 T01890012  RH  031%=      5-min Rain = 0
KDC1 200737Z 30002KT 19/01 A2994 RMK A01 T01880010  RH  030%=      5-min Rain = 0
KDC1 200738Z 29001KT 19/00 A2994 RMK A01 T01880003  RH  029%=      5-min Rain = 0
KDC1 200739Z 28000KT 19/M01 A2994 RMK A01 T01901006  RH  027%=      5-min Rain = 0
KDC1 200740Z 29000KT 19/M01 A2994 RMK A01 T01941010  RH  025%=      5-min Rain = 0
KDC1 200741Z 31001KT 20/M00 A2994 RMK A01 T01971002  RH  026%=      5-min Rain = 0
KDC1 200742Z 31000KT 20/00 A2994 RMK A01 T01960001  RH  027%=      5-min Rain = 0
KDC1 200743Z 31002KT 20/M00 A2994 RMK A01 T01961002  RH  026%=      5-min Rain = 0
KDC1 200744Z 32002KT 20/00 A2994 RMK A01 T01960004  RH  028%=      5-min Rain = 0
KDC1 200745Z 33001KT 20/01 A2994 RMK A01 T01980010  RH  029%=      5-min Rain = 0
KDC1 200746Z 32001KT 20/01 A2994 RMK A01 T01980008  RH  028%=      5-min Rain = 0
KDC1 200747Z 30001KT 20/00 A2994 RMK A01 T01980001  RH  027%=      5-min Rain = 0
KDC1 200748Z 29002KT 20/00 A2994 RMK A01 T01990004  RH  027%=      5-min Rain = 0
KDC1 200749Z 30003KT 20/01 A2994 RMK A01 T01980011  RH  029%=      5-min Rain = 0
KDC1 200750Z 31001KT 20/02 A2994 RMK A01 T01950021  RH  031%=      5-min Rain = 0
KDC1 200751Z 36001KT 19/02 A2993 RMK A01 T01920024  RH  033%=      5-min Rain = 0
KDC1 200752Z 00001KT 19/M01 A2993 RMK A01 T01921006  RH  026%=      5-min Rain = 0
KDC1 200753Z 31002KT 20/00 A2994 RMK A01 T01950001  RH  027%=      5-min Rain = 0
KDC1 200754Z 31003KT 20/01 A2994 RMK A01 T01960011  RH  029%=      5-min Rain = 0
KDC1 200755Z 36001KT 20/02 A2993 RMK A01 T01960017  RH  030%=      5-min Rain = 0
KDC1 200756Z 35001KT 19/01 A2994 RMK A01 T01940008  RH  029%=      5-min Rain = 0
KDC1 200757Z 30002KT 19/01 A2994 RMK A01 T01930012  RH  030%=      5-min Rain = 0
KDC1 200758Z 30002KT 19/02 A2994 RMK A01 T01910017  RH  031%=      5-min Rain = 0
KDC1 200759Z 32002KT 19/00 A2994 RMK A01 T01900004  RH  029%=      5-min Rain = 0
KDC1 200800Z 33001KT 19/M01 A2993 RMK A01 T01921013  RH  025%=      5-min Rain = 0
KDC1 200801Z 35001KT 20/M01 A2993 RMK A01 T01951013  RH  024%=      5-min Rain = 0
KDC1 200802Z 01002KT 20/M00 A2993 RMK A01 T01971003  RH  026%=      5-min Rain = 0
KDC1 200803Z 01002KT 20/01 A2993 RMK A01 T01970011  RH  029%=      5-min Rain = 0
KDC1 200804Z 00002KT 20/01 A2993 RMK A01 T01970014  RH  030%=      5-min Rain = 0
KDC1 200805Z 33002KT 19/03 A2993 RMK A01 T01940028  RH  033%=      5-min Rain = 0
KDC1 200806Z 33003KT 19/03 A2993 RMK A01 T01900033  RH  035%=      5-min Rain = 0
KDC1 200807Z 03002KT 19/04 A2993 RMK A01 T01880035  RH  036%=      5-min Rain = 0
KDC1 200808Z 03002KT 19/03 A2993 RMK A01 T01870034  RH  036%=      5-min Rain = 0
KDC1 200809Z 30004KT 19/03 A2994 RMK A01 T01860032  RH  036%=      5-min Rain = 0
KDC1 200810Z 30007KT 18/04 A2994 RMK A01 T01830037  RH  038%=      5-min Rain = 0
KDC1 200811Z 32002KT 18/03 A2994 RMK A01 T01780028  RH  037%=      5-min Rain = 0
KDC1 200812Z 05003KT 18/M01 A2993 RMK A01 T01791012  RH  027%=      5-min Rain = 0
KDC1 200813Z 06005KT 19/M02 A2993 RMK A01 T01861016  RH  025%=      5-min Rain = 0
KDC1 200814Z 07003KT 19/M01 A2993 RMK A01 T01941006  RH  026%=      5-min Rain = 0
KDC1 200815Z 29002KT 20/01 A2993 RMK A01 T01970005  RH  028%=      5-min Rain = 0
KDC1 200816Z 29008KT 20/00 A2993 RMK A01 T01960003  RH  027%=      5-min Rain = 0
KDC1 200817Z 30005KT 19/00 A2993 RMK A01 T019200-0  RH  027%=      5-min Rain = 0
KDC1 200818Z 02002KT 19/M01 A2993 RMK A01 T01911007  RH  026%=      5-min Rain = 0
KDC1 200819Z 05004KT 19/M02 A2993 RMK A01 T01911017  RH  024%=      5-min Rain = 0
KDC1 200820Z 02003KT 19/M02 A2993 RMK A01 T01941023  RH  023%=      5-min Rain = 0
KDC1 200821Z 02002KT 20/M03 A2993 RMK A01 T01981028  RH  022%=      5-min Rain = 0
KDC1 200822Z 01002KT 20/M03 A2993 RMK A01 T02011027  RH  021%=      5-min Rain = 0
KDC1 200823Z 02002KT 20/M03 A2993 RMK A01 T02041025  RH  021%=      5-min Rain = 0
KDC1 200824Z 32003KT 21/M02 A2993 RMK A01 T02051021  RH  022%=      5-min Rain = 0
KDC1 200825Z 30004KT 20/M01 A2993 RMK A01 T02021006  RH  025%=      5-min Rain = 0
KDC1 200826Z 30003KT 20/M01 A2993 RMK A01 T01981009  RH  025%=      5-min Rain = 0
KDC1 200827Z 31002KT 20/M02 A2993 RMK A01 T01981015  RH  024%=      5-min Rain = 0
KDC1 200828Z 31003KT 20/M02 A2993 RMK A01 T01991018  RH  023%=      5-min Rain = 0
KDC1 200829Z 32002KT 20/M02 A2993 RMK A01 T02001015  RH  024%=      5-min Rain = 0
KDC1 200830Z 31001KT 20/M02 A2993 RMK A01 T02001016  RH  023%=      5-min Rain = 0
KDC1 200831Z 30001KT 20/M02 A2993 RMK A01 T02001022  RH  022%=      5-min Rain = 0
KDC1 200832Z 30000KT 20/M02 A2993 RMK A01 T02011022  RH  022%=      5-min Rain = 0
KDC1 200833Z 30000KT 20/M02 A2993 RMK A01 T02011022  RH  022%=      5-min Rain = 0
KDC1 200834Z 28002KT 20/M02 A2993 RMK A01 T02011019  RH  023%=      5-min Rain = 0
KDC1 200835Z 27003KT 20/M02 A2993 RMK A01 T02001019  RH  023%=      5-min Rain = 0
KDC1 200836Z 27003KT 20/M02 A2993 RMK A01 T01991016  RH  024%=      5-min Rain = 0
KDC1 200837Z 27003KT 20/M02 A2993 RMK A01 T01971017  RH  024%=      5-min Rain = 0
KDC1 200838Z 27003KT 20/M02 A2993 RMK A01 T01961018  RH  024%=      5-min Rain = 0
KDC1 200839Z 26003KT 20/M02 A2993 RMK A01 T01961021  RH  023%=      5-min Rain = 0
KDC1 200840Z 27005KT 20/M02 A2993 RMK A01 T01971022  RH  023%=      5-min Rain = 0
KDC1 200841Z 26005KT 20/M01 A2993 RMK A01 T01971011  RH  025%=      5-min Rain = 0
KDC1 200842Z 23003KT 20/M01 A2993 RMK A01 T01951013  RH  024%=      5-min Rain = 0
KDC1 200843Z 19002KT 20/M02 A2993 RMK A01 T01951020  RH  023%=      5-min Rain = 0
KDC1 200844Z 25002KT 20/M00 A2993 RMK A01 T01951002  RH  027%=      5-min Rain = 0
KDC1 200845Z 28005KT 19/M01 A2993 RMK A01 T01941013  RH  025%=      5-min Rain = 0
KDC1 200846Z 27005KT 19/00 A2993 RMK A01 T01940001  RH  027%=      5-min Rain = 0
KDC1 200847Z 24004KT 19/00 A2993 RMK A01 T01920001  RH  028%=      5-min Rain = 0
KDC1 200848Z 19003KT 19/M02 A2993 RMK A01 T01921018  RH  024%=      5-min Rain = 0
KDC1 200849Z 19002KT 19/M01 A2993 RMK A01 T01941009  RH  025%=      5-min Rain = 0
KDC1 200850Z 29004KT 20/M01 A2994 RMK A01 T01951009  RH  025%=      5-min Rain = 0
KDC1 200851Z 29006KT 19/00 A2994 RMK A01 T01940002  RH  028%=      5-min Rain = 0
KDC1 200852Z 26004KT 19/M00 A2994 RMK A01 T01891001  RH  028%=      5-min Rain = 0
KDC1 200853Z 17002KT 19/M01 A2993 RMK A01 T01881012  RH  026%=      5-min Rain = 0
KDC1 200854Z 13004KT 19/M01 A2993 RMK A01 T01901009  RH  026%=      5-min Rain = 0
KDC1 200855Z 15002KT 19/00 A2993 RMK A01 T01930003  RH  028%=      5-min Rain = 0
KDC1 200856Z 18002KT 19/02 A2993 RMK A01 T01900017  RH  031%=      5-min Rain = 0
KDC1 200857Z 28003KT 19/01 A2994 RMK A01 T01870005  RH  029%=      5-min Rain = 0
KDC1 200858Z 27004KT 19/M01 A2994 RMK A01 T01871011  RH  026%=      5-min Rain = 0
KDC1 200859Z 22003KT 19/M02 A2994 RMK A01 T01891015  RH  025%=      5-min Rain = 0
KDC1 200900Z 18002KT 19/M02 A2993 RMK A01 T01921015  RH  025%=      5-min Rain = 0
KDC1 200901Z 23002KT 19/M01 A2993 RMK A01 T01941011  RH  025%=      5-min Rain = 0
KDC1 200902Z 29003KT 19/00 A2993 RMK A01 T01920004  RH  028%=      5-min Rain = 0
KDC1 200903Z 30002KT 19/00 A2994 RMK A01 T01870001  RH  029%=      5-min Rain = 0
KDC1 200904Z 28001KT 19/M01 A2993 RMK A01 T01871013  RH  026%=      5-min Rain = 0
KDC1 200905Z 24003KT 19/M00 A2993 RMK A01 T01891002  RH  028%=      5-min Rain = 0
KDC1 200906Z 25002KT 19/00 A2993 RMK A01 T01880004  RH  029%=      5-min Rain = 0
KDC1 200907Z 21001KT 19/M01 A2993 RMK A01 T01871007  RH  027%=      5-min Rain = 0
KDC1 200908Z 04000KT 19/M01 A2993 RMK A01 T01891010  RH  026%=      5-min Rain = 0
KDC1 200909Z 01001KT 19/M01 A2993 RMK A01 T01901007  RH  026%=      5-min Rain = 0
KDC1 200910Z 33003KT 19/00 A2993 RMK A01 T01900004  RH  029%=      5-min Rain = 0
KDC1 200911Z 34004KT 18/01 A2993 RMK A01 T01840011  RH  031%=      5-min Rain = 0
KDC1 200912Z 35003KT 18/01 A2993 RMK A01 T01810007  RH  031%=      5-min Rain = 0
KDC1 200913Z 34002KT 18/01 A2993 RMK A01 T01790010  RH  032%=      5-min Rain = 0
KDC1 200914Z 32001KT 18/00 A2993 RMK A01 T01780000  RH  030%=      5-min Rain = 0
KDC1 200915Z 32000KT 18/M01 A2993 RMK A01 T01791007  RH  028%=      5-min Rain = 0
KDC1 200916Z 31001KT 18/M02 A2993 RMK A01 T01821022  RH  025%=      5-min Rain = 0
KDC1 200917Z 30002KT 19/M01 A2993 RMK A01 T01871014  RH  026%=      5-min Rain = 0
KDC1 200918Z 32003KT 19/01 A2993 RMK A01 T01880006  RH  030%=      5-min Rain = 0
KDC1 200919Z 32002KT 18/01 A2993 RMK A01 T01840012  RH  031%=      5-min Rain = 0
KDC1 200920Z 32000KT 18/01 A2993 RMK A01 T01810009  RH  031%=      5-min Rain = 0
KDC1 200921Z 34001KT 18/01 A2993 RMK A01 T01810007  RH  031%=      5-min Rain = 0
KDC1 200922Z 35001KT 18/01 A2993 RMK A01 T01800012  RH  032%=      5-min Rain = 0
KDC1 200923Z 35003KT 18/02 A2993 RMK A01 T01800015  RH  033%=      5-min Rain = 0
KDC1 200924Z 00002KT 18/02 A2993 RMK A01 T01790019  RH  034%=      5-min Rain = 0
KDC1 200925Z 02001KT 18/02 A2993 RMK A01 T01780022  RH  035%=      5-min Rain = 0
KDC1 200926Z 07001KT 18/02 A2993 RMK A01 T01770020  RH  035%=      5-min Rain = 0
KDC1 200927Z 06001KT 18/01 A2993 RMK A01 T01760007  RH  032%=      5-min Rain = 0
KDC1 200928Z 34002KT 18/01 A2993 RMK A01 T01770012  RH  033%=      5-min Rain = 0
KDC1 200929Z 35002KT 18/02 A2993 RMK A01 T01770021  RH  035%=      5-min Rain = 0
KDC1 200930Z 35001KT 18/02 A2994 RMK A01 T01770024  RH  036%=      5-min Rain = 0
KDC1 200931Z 24001KT 18/02 A2994 RMK A01 T01760016  RH  034%=      5-min Rain = 0
KDC1 200932Z 27002KT 18/01 A2994 RMK A01 T01760012  RH  033%=      5-min Rain = 0
KDC1 200933Z 26004KT 18/02 A2994 RMK A01 T01760017  RH  034%=      5-min Rain = 0
KDC1 200934Z 27004KT 17/02 A2994 RMK A01 T01740018  RH  035%=      5-min Rain = 0
KDC1 200935Z 29002KT 17/01 A2994 RMK A01 T01730014  RH  034%=      5-min Rain = 0
KDC1 200936Z 29002KT 17/02 A2994 RMK A01 T01730015  RH  035%=      5-min Rain = 0
KDC1 200937Z 29001KT 17/01 A2993 RMK A01 T01730014  RH  034%=      5-min Rain = 0
KDC1 200938Z 26002KT 17/01 A2994 RMK A01 T01730008  RH  033%=      5-min Rain = 0
KDC1 200939Z 25004KT 18/01 A2994 RMK A01 T01750010  RH  033%=      5-min Rain = 0
KDC1 200940Z 25004KT 18/02 A2994 RMK A01 T01750020  RH  035%=      5-min Rain = 0
KDC1 200941Z 26003KT 17/03 A2994 RMK A01 T01720027  RH  038%=      5-min Rain = 0
KDC1 200942Z 27004KT 17/02 A2994 RMK A01 T01700015  RH  035%=      5-min Rain = 0
KDC1 200943Z 27006KT 17/02 A2994 RMK A01 T01710024  RH  037%=      5-min Rain = 0
KDC1 200944Z 27004KT 17/02 A2994 RMK A01 T01690019  RH  036%=      5-min Rain = 0
KDC1 200945Z 27004KT 17/01 A2993 RMK A01 T01680008  RH  034%=      5-min Rain = 0
KDC1 200946Z 27003KT 17/00 A2993 RMK A01 T01700001  RH  032%=      5-min Rain = 0
KDC1 200947Z 28001KT 17/00 A2993 RMK A01 T01730000  RH  031%=      5-min Rain = 0
KDC1 200948Z 27002KT 18/00 A2994 RMK A01 T01750000  RH  031%=      5-min Rain = 0
KDC1 200949Z 26004KT 18/00 A2994 RMK A01 T01760002  RH  031%=      5-min Rain = 0
KDC1 200950Z 24002KT 18/M00 A2994 RMK A01 T01781003  RH  029%=      5-min Rain = 0
KDC1 200951Z 24002KT 18/M00 A2993 RMK A01 T01811004  RH  029%=      5-min Rain = 0
KDC1 200952Z 25002KT 18/M00 A2993 RMK A01 T01821002  RH  029%=      5-min Rain = 0
KDC1 200953Z 26004KT 18/00 A2994 RMK A01 T01830004  RH  030%=      5-min Rain = 0
KDC1 200954Z 26003KT 18/01 A2994 RMK A01 T01800012  RH  032%=      5-min Rain = 0
KDC1 200955Z 27001KT 18/02 A2994 RMK A01 T01760018  RH  035%=      5-min Rain = 0
KDC1 200956Z 31001KT 17/02 A2993 RMK A01 T01730018  RH  035%=      5-min Rain = 0
KDC1 200957Z 29003KT 17/02 A2993 RMK A01 T01710019  RH  036%=      5-min Rain = 0
KDC1 200958Z 28003KT 17/02 A2993 RMK A01 T01690019  RH  036%=      5-min Rain = 0
KDC1 200959Z 28005KT 17/02 A2994 RMK A01 T01680018  RH  036%=      5-min Rain = 0
KDC1 201000Z 28004KT 17/01 A2994 RMK A01 T01680013  RH  035%=      5-min Rain = 0
KDC1 201001Z 27003KT 17/01 A2994 RMK A01 T01700011  RH  034%=      5-min Rain = 0
KDC1 201002Z 25003KT 17/01 A2994 RMK A01 T01720006  RH  033%=      5-min Rain = 0
KDC1 201003Z 26004KT 18/00 A2994 RMK A01 T01750000  RH  031%=      5-min Rain = 0
KDC1 201004Z 26004KT 18/M00 A2994 RMK A01 T01781004  RH  029%=      5-min Rain = 0
KDC1 201005Z 27003KT 18/M01 A2994 RMK A01 T01811006  RH  028%=      5-min Rain = 0
KDC1 201006Z 28004KT 18/M00 A2994 RMK A01 T01841003  RH  028%=      5-min Rain = 0
KDC1 201007Z 29004KT 18/01 A2994 RMK A01 T01830005  RH  030%=      5-min Rain = 0
KDC1 201008Z 29004KT 18/01 A2994 RMK A01 T01790012  RH  032%=      5-min Rain = 0
KDC1 201009Z 28004KT 17/01 A2994 RMK A01 T01740014  RH  034%=      5-min Rain = 0
KDC1 201010Z 27004KT 17/01 A2994 RMK A01 T01710013  RH  035%=      5-min Rain = 0
KDC1 201011Z 27004KT 17/02 A2994 RMK A01 T01680016  RH  036%=      5-min Rain = 0
KDC1 201012Z 29003KT 17/02 A2994 RMK A01 T01660017  RH  037%=      5-min Rain = 0
KDC1 201013Z 29002KT 17/01 A2994 RMK A01 T01650011  RH  035%=      5-min Rain = 0
KDC1 201014Z 29004KT 16/01 A2994 RMK A01 T01640014  RH  036%=      5-min Rain = 0
KDC1 201015Z 29005KT 16/01 A2994 RMK A01 T01640014  RH  036%=      5-min Rain = 0
KDC1 201016Z 29004KT 16/02 A2994 RMK A01 T01630016  RH  037%=      5-min Rain = 0
KDC1 201017Z 30004KT 16/02 A2994 RMK A01 T01610016  RH  037%=      5-min Rain = 0
KDC1 201018Z 30004KT 16/01 A2994 RMK A01 T01600014  RH  037%=      5-min Rain = 0
KDC1 201019Z 30006KT 16/01 A2994 RMK A01 T01600013  RH  037%=      5-min Rain = 0
KDC1 201020Z 30005KT 16/01 A2994 RMK A01 T01600010  RH  036%=      5-min Rain = 0
KDC1 201021Z 31004KT 16/01 A2994 RMK A01 T01600007  RH  036%=      5-min Rain = 0
KDC1 201022Z 31005KT 16/01 A2994 RMK A01 T01600008  RH  036%=      5-min Rain = 0
KDC1 201023Z 29004KT 16/01 A2994 RMK A01 T01600005  RH  035%=      5-min Rain = 0
KDC1 201024Z 29004KT 16/00 A2994 RMK A01 T01610003  RH  034%=      5-min Rain = 0
KDC1 201025Z 29004KT 16/00 A2994 RMK A01 T01620002  RH  034%=      5-min Rain = 0
KDC1 201026Z 29004KT 16/M00 A2994 RMK A01 T01631001  RH  033%=      5-min Rain = 0
KDC1 201027Z 28004KT 17/M00 A2994 RMK A01 T01651004  RH  032%=      5-min Rain = 0
KDC1 201028Z 28005KT 17/M01 A2994 RMK A01 T01671006  RH  031%=      5-min Rain = 0
KDC1 201029Z 28004KT 17/M01 A2994 RMK A01 T01681006  RH  031%=      5-min Rain = 0
KDC1 201030Z 28004KT 17/M00 A2994 RMK A01 T01681004  RH  031%=      5-min Rain = 0
KDC1 201031Z 29003KT 17/M00 A2994 RMK A01 T01681002  RH  032%=      5-min Rain = 0
KDC1 201032Z 30005KT 17/M00 A2994 RMK A01 T01661002  RH  032%=      5-min Rain = 0
KDC1 201033Z 30005KT 16/M00 A2994 RMK A01 T01631002  RH  033%=      5-min Rain = 0
KDC1 201034Z 31005KT 16/00 A2994 RMK A01 T01600001  RH  034%=      5-min Rain = 0
KDC1 201035Z 31005KT 16/00 A2994 RMK A01 T01580003  RH  035%=      5-min Rain = 0
KDC1 201036Z 32004KT 16/00 A2994 RMK A01 T01550003  RH  035%=      5-min Rain = 0
KDC1 201037Z 32003KT 15/00 A2994 RMK A01 T01540003  RH  036%=      5-min Rain = 0
KDC1 201038Z 30002KT 15/00 A2994 RMK A01 T01530002  RH  036%=      5-min Rain = 0
KDC1 201039Z 28002KT 15/M00 A2994 RMK A01 T01531004  RH  034%=      5-min Rain = 0
KDC1 201040Z 26002KT 16/M01 A2994 RMK A01 T01561011  RH  032%=      5-min Rain = 0
KDC1 201041Z 27002KT 16/M02 A2994 RMK A01 T01601016  RH  030%=      5-min Rain = 0
KDC1 201042Z 28002KT 16/M02 A2994 RMK A01 T01631015  RH  030%=      5-min Rain = 0
KDC1 201043Z 29003KT 16/M01 A2994 RMK A01 T01631010  RH  031%=      5-min Rain = 0
KDC1 201044Z 29004KT 16/M00 A2994 RMK A01 T01601001  RH  033%=      5-min Rain = 0
KDC1 201045Z 28003KT 16/00 A2994 RMK A01 T01570002  RH  035%=      5-min Rain = 0
KDC1 201046Z 27003KT 16/M00 A2994 RMK A01 T01561003  RH  034%=      5-min Rain = 0
KDC1 201047Z 26003KT 16/M01 A2994 RMK A01 T01571009  RH  032%=      5-min Rain = 0
KDC1 201048Z 26003KT 16/M01 A2994 RMK A01 T01611008  RH  031%=      5-min Rain = 0
KDC1 201049Z 26003KT 16/M01 A2994 RMK A01 T01631012  RH  030%=      5-min Rain = 0
KDC1 201050Z 26004KT 17/M01 A2994 RMK A01 T01671014  RH  029%=      5-min Rain = 0
KDC1 201051Z 26003KT 17/M01 A2994 RMK A01 T01701014  RH  028%=      5-min Rain = 0
KDC1 201052Z 27002KT 17/M01 A2994 RMK A01 T01721011  RH  029%=      5-min Rain = 0
KDC1 201053Z 27002KT 17/M01 A2994 RMK A01 T01721008  RH  029%=      5-min Rain = 0
KDC1 201054Z 26001KT 17/M01 A2994 RMK A01 T01721013  RH  028%=      5-min Rain = 0
KDC1 201055Z 26003KT 17/M01 A2994 RMK A01 T01731014  RH  028%=      5-min Rain = 0
KDC1 201056Z 24002KT 17/M01 A2994 RMK A01 T01741011  RH  028%=      5-min Rain = 0
KDC1 201057Z 25003KT 17/00 A2995 RMK A01 T01740000  RH  031%=      5-min Rain = 0
KDC1 201058Z 26003KT 17/01 A2995 RMK A01 T01700007  RH  033%=      5-min Rain = 0
KDC1 201059Z 27002KT 17/01 A2995 RMK A01 T01660009  RH  035%=      5-min Rain = 0
KDC1 201100Z 27000KT 16/01 A2994 RMK A01 T01640011  RH  035%=      5-min Rain = 0
KDC1 201101Z 27000KT 16/02 A2994 RMK A01 T01620015  RH  037%=      5-min Rain = 0
KDC1 201102Z 00000KT 16/01 A2994 RMK A01 T01590011  RH  037%=      5-min Rain = 0
KDC1 201103Z 29000KT 16/01 A2994 RMK A01 T01570011  RH  037%=      5-min Rain = 0
KDC1 201104Z 30004KT 16/01 A2995 RMK A01 T01560012  RH  038%=      5-min Rain = 0
KDC1 201105Z 31007KT 16/01 A2995 RMK A01 T01550013  RH  038%=      5-min Rain = 0
KDC1 201106Z 32005KT 15/01 A2995 RMK A01 T01530012  RH  038%=      5-min Rain = 0
KDC1 201107Z 33003KT 15/01 A2994 RMK A01 T01520011  RH  038%=      5-min Rain = 0
KDC1 201108Z 33002KT 15/01 A2994 RMK A01 T01520011  RH  038%=      5-min Rain = 0
KDC1 201109Z 33000KT 15/01 A2994 RMK A01 T01520010  RH  038%=      5-min Rain = 0
KDC1 201110Z 30000KT 15/00 A2994 RMK A01 T01530001  RH  035%=      5-min Rain = 0
KDC1 201111Z 29002KT 16/M01 A2995 RMK A01 T01571005  RH  033%=      5-min Rain = 0
KDC1 201112Z 29003KT 16/M00 A2995 RMK A01 T01621004  RH  032%=      5-min Rain = 0
KDC1 201113Z 29003KT 16/00 A2995 RMK A01 T01640004  RH  034%=      5-min Rain = 0
KDC1 201114Z 29004KT 16/01 A2995 RMK A01 T01630010  RH  035%=      5-min Rain = 0
KDC1 201115Z 29003KT 16/01 A2995 RMK A01 T01610013  RH  037%=      5-min Rain = 0
KDC1 201116Z 22002KT 16/01 A2995 RMK A01 T01590011  RH  037%=      5-min Rain = 0
KDC1 201117Z 21001KT 16/01 A2995 RMK A01 T01580011  RH  037%=      5-min Rain = 0
KDC1 201118Z 21001KT 16/01 A2995 RMK A01 T01600011  RH  036%=      5-min Rain = 0
KDC1 201119Z 20002KT 16/01 A2995 RMK A01 T01610009  RH  036%=      5-min Rain = 0
KDC1 201120Z 29001KT 16/01 A2995 RMK A01 T01610011  RH  036%=      5-min Rain = 0
KDC1 201121Z 31001KT 16/01 A2995 RMK A01 T01620007  RH  035%=      5-min Rain = 0
KDC1 201122Z 33001KT 16/00 A2995 RMK A01 T01620002  RH  034%=      5-min Rain = 0
KDC1 201123Z 08000KT 16/01 A2995 RMK A01 T01620010  RH  036%=      5-min Rain = 0
KDC1 201124Z 11002KT 16/03 A2995 RMK A01 T01620026  RH  040%=      5-min Rain = 0
KDC1 201125Z 11002KT 16/03 A2995 RMK A01 T01600026  RH  040%=      5-min Rain = 0
KDC1 201126Z 10000KT 16/03 A2995 RMK A01 T01590031  RH  042%=      5-min Rain = 0
KDC1 201127Z 00000KT 16/04 A2995 RMK A01 T01570035  RH  044%=      5-min Rain = 0
KDC1 201128Z 16000KT 16/02 A2995 RMK A01 T01550023  RH  041%=      5-min Rain = 0
KDC1 201129Z 17002KT 16/01 A2995 RMK A01 T01560012  RH  038%=      5-min Rain = 0
KDC1 201130Z 20001KT 16/01 A2995 RMK A01 T01580013  RH  037%=      5-min Rain = 0
KDC1 201131Z 26001KT 16/02 A2995 RMK A01 T01590015  RH  038%=      5-min Rain = 0
KDC1 201132Z 25003KT 16/02 A2995 RMK A01 T01590016  RH  038%=      5-min Rain = 0
KDC1 201133Z 24002KT 16/02 A2995 RMK A01 T01570016  RH  039%=      5-min Rain = 0
KDC1 201134Z 24002KT 16/01 A2995 RMK A01 T01550014  RH  038%=      5-min Rain = 0
KDC1 201135Z 21000KT 16/01 A2995 RMK A01 T01550011  RH  038%=      5-min Rain = 0
KDC1 201136Z 10000KT 16/01 A2995 RMK A01 T01550014  RH  038%=      5-min Rain = 0
KDC1 201137Z 00000KT 16/01 A2995 RMK A01 T01550012  RH  038%=      5-min Rain = 0
KDC1 201138Z 00000KT 16/01 A2995 RMK A01 T01560009  RH  037%=      5-min Rain = 0
KDC1 201139Z 00000KT 16/01 A2995 RMK A01 T01570009  RH  037%=      5-min Rain = 0
KDC1 201140Z 23001KT 16/01 A2995 RMK A01 T01580011  RH  037%=      5-min Rain = 0
KDC1 201141Z 24001KT 16/01 A2995 RMK A01 T01590008  RH  036%=      5-min Rain = 0
KDC1 201142Z 32004KT 16/01 A2996 RMK A01 T01580011  RH  037%=      5-min Rain = 0
KDC1 201143Z 29003G8KT 15/02 A2996 RMK A01 T01540021  RH  041%=      5-min Rain = 0
KDC1 201144Z 29001KT 15/02 A2995 RMK A01 T01540020  RH  040%=      5-min Rain = 0
KDC1 201145Z 04000KT 15/02 A2995 RMK A01 T01540019  RH  040%=      5-min Rain = 0
KDC1 201146Z 06001KT 16/02 A2995 RMK A01 T01550018  RH  039%=      5-min Rain = 0
KDC1 201147Z 07001KT 16/02 A2995 RMK A01 T01570018  RH  039%=      5-min Rain = 0
KDC1 201148Z 11001KT 16/02 A2995 RMK A01 T01580019  RH  039%=      5-min Rain = 0
KDC1 201149Z 10000KT 16/02 A2995 RMK A01 T01570022  RH  040%=      5-min Rain = 0
KDC1 201150Z 00000KT 16/02 A2996 RMK A01 T01570017  RH  039%=      5-min Rain = 0
KDC1 201151Z 32001KT 16/01 A2996 RMK A01 T01580014  RH  038%=      5-min Rain = 0
KDC1 201152Z 33002KT 16/02 A2996 RMK A01 T01580019  RH  039%=      5-min Rain = 0
KDC1 201153Z 31002KT 16/02 A2996 RMK A01 T01560022  RH  040%=      5-min Rain = 0
KDC1 201154Z 28002KT 15/03 A2996 RMK A01 T01530025  RH  042%=      5-min Rain = 0
KDC1 201155Z 29003KT 15/03 A2996 RMK A01 T01510027  RH  043%=      5-min Rain = 0
KDC1 201156Z 30004KT 15/03 A2996 RMK A01 T01480031  RH  045%=      5-min Rain = 0
KDC1 201157Z 27003KT 15/03 A2996 RMK A01 T01460031  RH  046%=      5-min Rain = 0
KDC1 201158Z 24003KT 15/03 A2996 RMK A01 T01450032  RH  047%=      5-min Rain = 0
KDC1 201159Z 23003KT 14/03 A2996 RMK A01 T01440032  RH  047%=      5-min Rain = 0
KDC1 201200Z 25003KT 14/03 A2996 RMK A01 T01440025  RH  045%=      5-min Rain = 0
KDC1 201201Z 29002KT 15/02 A2996 RMK A01 T01460023  RH  043%=      5-min Rain = 0
KDC1 201202Z 29002KT 15/02 A2996 RMK A01 T01470024  RH  043%=      5-min Rain = 0
KDC1 201203Z 31001KT 15/03 A2996 RMK A01 T01480026  RH  044%=      5-min Rain = 0
KDC1 201204Z 31001KT 15/03 A2996 RMK A01 T01480028  RH  045%=      5-min Rain = 0
KDC1 201205Z 31001KT 15/03 A2996 RMK A01 T01470028  RH  045%=      5-min Rain = 0
KDC1 201206Z 30002KT 15/03 A2996 RMK A01 T01470027  RH  044%=      5-min Rain = 0
KDC1 201207Z 30003KT 15/03 A2996 RMK A01 T01480029  RH  045%=      5-min Rain = 0
KDC1 201208Z 30003KT 15/03 A2996 RMK A01 T01480031  RH  045%=      5-min Rain = 0
KDC1 201209Z 31003KT 15/03 A2996 RMK A01 T01470026  RH  044%=      5-min Rain = 0
KDC1 201210Z 31003KT 15/02 A2996 RMK A01 T01480019  RH  042%=      5-min Rain = 0
KDC1 201211Z 31003KT 15/02 A2996 RMK A01 T01490019  RH  041%=      5-min Rain = 0
KDC1 201212Z 30003KT 15/02 A2996 RMK A01 T01490020  RH  042%=      5-min Rain = 0
KDC1 201213Z 30002KT 15/02 A2996 RMK A01 T01490017  RH  041%=      5-min Rain = 0
KDC1 201214Z 34002KT 15/01 A2996 RMK A01 T01500014  RH  040%=      5-min Rain = 0
KDC1 201215Z 01002KT 15/02 A2996 RMK A01 T01500015  RH  040%=      5-min Rain = 0
KDC1 201216Z 04002KT 15/02 A2996 RMK A01 T01510017  RH  040%=      5-min Rain = 0
KDC1 201217Z 06002KT 15/02 A2996 RMK A01 T01520017  RH  040%=      5-min Rain = 0
KDC1 201218Z 06002KT 15/02 A2996 RMK A01 T01540018  RH  040%=      5-min Rain = 0
KDC1 201219Z 06002KT 16/02 A2996 RMK A01 T01550022  RH  041%=      5-min Rain = 0
KDC1 201220Z 08001KT 16/03 A2997 RMK A01 T01560033  RH  044%=      5-min Rain = 0
KDC1 201221Z 12000KT 16/04 A2997 RMK A01 T01550036  RH  045%=      5-min Rain = 0
KDC1 201222Z 29001KT 15/03 A2997 RMK A01 T01530034  RH  045%=      5-min Rain = 0
KDC1 201223Z 27003KT 15/03 A2997 RMK A01 T01520026  RH  043%=      5-min Rain = 0
KDC1 201224Z 26000KT 15/03 A2997 RMK A01 T01500028  RH  044%=      5-min Rain = 0
KDC1 201225Z 36001KT 15/03 A2997 RMK A01 T01490028  RH  044%=      5-min Rain = 0
KDC1 201226Z 01001KT 15/03 A2997 RMK A01 T01480027  RH  044%=      5-min Rain = 0
KDC1 201227Z 08001KT 15/03 A2997 RMK A01 T01480026  RH  044%=      5-min Rain = 0
KDC1 201228Z 10002KT 15/03 A2997 RMK A01 T01490026  RH  044%=      5-min Rain = 0
KDC1 201229Z 10001KT 15/03 A2997 RMK A01 T01510033  RH  045%=      5-min Rain = 0
KDC1 201230Z 10000KT 15/04 A2997 RMK A01 T01520039  RH  047%=      5-min Rain = 0
KDC1 201231Z 00000KT 15/03 A2997 RMK A01 T01530033  RH  045%=      5-min Rain = 0
KDC1 201232Z 32000KT 15/03 A2997 RMK A01 T01530029  RH  043%=      5-min Rain = 0
KDC1 201233Z 31002KT 15/03 A2997 RMK A01 T01530028  RH  043%=      5-min Rain = 0
KDC1 201234Z 30002KT 15/03 A2997 RMK A01 T01530030  RH  044%=      5-min Rain = 0
KDC1 201235Z 29001KT 15/03 A2997 RMK A01 T01530033  RH  045%=      5-min Rain = 0
KDC1 201236Z 30000KT 15/03 A2997 RMK A01 T01530032  RH  044%=      5-min Rain = 0
KDC1 201237Z 00000KT 15/03 A2997 RMK A01 T01530029  RH  044%=      5-min Rain = 0
KDC1 201238Z 35000KT 15/03 A2997 RMK A01 T01540034  RH  044%=      5-min Rain = 0
KDC1 201239Z 34001KT 16/03 A2997 RMK A01 T01550034  RH  044%=      5-min Rain = 0
KDC1 201240Z 32001KT 16/03 A2997 RMK A01 T01560030  RH  043%=      5-min Rain = 0
KDC1 201241Z 29002KT 16/03 A2997 RMK A01 T01560031  RH  043%=      5-min Rain = 0
KDC1 201242Z 25002KT 16/03 A2997 RMK A01 T01560032  RH  043%=      5-min Rain = 0
KDC1 201243Z 24002KT 16/03 A2998 RMK A01 T01560034  RH  044%=      5-min Rain = 0
KDC1 201244Z 25002KT 16/04 A2998 RMK A01 T01560035  RH  044%=      5-min Rain = 0
KDC1 201245Z 25002KT 16/04 A2998 RMK A01 T01550035  RH  045%=      5-min Rain = 0
KDC1 201246Z 26002KT 16/04 A2998 RMK A01 T01550038  RH  045%=      5-min Rain = 0
KDC1 201247Z 28002KT 15/04 A2998 RMK A01 T01540041  RH  047%=      5-min Rain = 0
KDC1 201248Z 30002KT 15/04 A2998 RMK A01 T01530042  RH  047%=      5-min Rain = 0
KDC1 201249Z 29002KT 15/05 A2998 RMK A01 T01530049  RH  050%=      5-min Rain = 0
KDC1 201250Z 28001KT 15/05 A2998 RMK A01 T01530048  RH  049%=      5-min Rain = 0
KDC1 201251Z 26001KT 15/05 A2998 RMK A01 T01540045  RH  048%=      5-min Rain = 0
KDC1 201252Z 29001KT 16/04 A2998 RMK A01 T01550039  RH  046%=      5-min Rain = 0
KDC1 201253Z 29002KT 16/04 A2998 RMK A01 T01550040  RH  046%=      5-min Rain = 0
KDC1 201254Z 31001KT 16/04 A2998 RMK A01 T01560038  RH  045%=      5-min Rain = 0
KDC1 201255Z 31000KT 16/04 A2998 RMK A01 T01570035  RH  044%=      5-min Rain = 0
KDC1 201256Z 18000KT 16/04 A2998 RMK A01 T01590036  RH  044%=      5-min Rain = 0
KDC1 201257Z 35000KT 16/06 A2998 RMK A01 T01610055  RH  050%=      5-min Rain = 0
KDC1 201258Z 33002KT 16/05 A2998 RMK A01 T01620052  RH  048%=      5-min Rain = 0
KDC1 201259Z 29004KT 16/04 A2998 RMK A01 T01630036  RH  043%=      5-min Rain = 0
KDC1 201300Z 28005KT 16/04 A2998 RMK A01 T01630037  RH  043%=      5-min Rain = 0
KDC1 201301Z 29003KT 16/03 A2998 RMK A01 T01640032  RH  041%=      5-min Rain = 0
KDC1 201302Z 33001KT 17/03 A2998 RMK A01 T01660029  RH  040%=      5-min Rain = 0
KDC1 201303Z 01001KT 17/02 A2998 RMK A01 T01680018  RH  036%=      5-min Rain = 0
KDC1 201304Z 02001KT 17/02 A2998 RMK A01 T01720021  RH  036%=      5-min Rain = 0
KDC1 201305Z 07001KT 18/02 A2998 RMK A01 T01750020  RH  035%=      5-min Rain = 0
KDC1 201306Z 08002KT 18/02 A2998 RMK A01 T01780019  RH  034%=      5-min Rain = 0
KDC1 201307Z 07002KT 18/02 A2998 RMK A01 T01800016  RH  033%=      5-min Rain = 0
KDC1 201308Z 06001KT 18/02 A2998 RMK A01 T01810020  RH  034%=      5-min Rain = 0
KDC1 201309Z 31001KT 18/01 A2998 RMK A01 T01820014  RH  032%=      5-min Rain = 0
KDC1 201310Z 32002KT 18/01 A2998 RMK A01 T01830014  RH  032%=      5-min Rain = 0
KDC1 201311Z 34002KT 18/03 A2998 RMK A01 T01830026  RH  035%=      5-min Rain = 0
KDC1 201312Z 00001KT 18/03 A2998 RMK A01 T01830031  RH  036%=      5-min Rain = 0
KDC1 201313Z 01000KT 18/03 A2998 RMK A01 T01830033  RH  037%=      5-min Rain = 0
KDC1 201314Z 27001KT 18/03 A2998 RMK A01 T01840034  RH  037%=      5-min Rain = 0
KDC1 201315Z 26002KT 18/03 A2998 RMK A01 T01840027  RH  035%=      5-min Rain = 0
KDC1 201316Z 26000KT 18/03 A2998 RMK A01 T01840026  RH  035%=      5-min Rain = 0
KDC1 201317Z 03000KT 19/03 A2998 RMK A01 T01860025  RH  034%=      5-min Rain = 0
KDC1 201318Z 03001KT 19/03 A2998 RMK A01 T01870029  RH  035%=      5-min Rain = 0
KDC1 201319Z 05001KT 19/04 A2998 RMK A01 T01900035  RH  036%=      5-min Rain = 0
KDC1 201320Z 09000KT 19/04 A2998 RMK A01 T01910037  RH  036%=      5-min Rain = 0
KDC1 201321Z 00000KT 19/03 A2998 RMK A01 T01910034  RH  035%=      5-min Rain = 0
KDC1 201322Z 25001KT 19/04 A2999 RMK A01 T01920037  RH  036%=      5-min Rain = 0
KDC1 201323Z 26001KT 19/04 A2999 RMK A01 T01930038  RH  036%=      5-min Rain = 0
KDC1 201324Z 34000KT 19/03 A2999 RMK A01 T01920030  RH  034%=      5-min Rain = 0
KDC1 201325Z 02001KT 19/03 A2999 RMK A01 T01930029  RH  034%=      5-min Rain = 0
KDC1 201326Z 02000KT 19/03 A2999 RMK A01 T01940030  RH  034%=      5-min Rain = 0
KDC1 201327Z 02000KT 19/03 A2999 RMK A01 T01940028  RH  033%=      5-min Rain = 0
KDC1 201328Z 23000KT 19/03 A2999 RMK A01 T01940026  RH  033%=      5-min Rain = 0
KDC1 201329Z 23001KT 20/03 A2999 RMK A01 T01950026  RH  032%=      5-min Rain = 0
KDC1 201330Z 27001KT 20/03 A2999 RMK A01 T01960027  RH  033%=      5-min Rain = 0
KDC1 201331Z 27000KT 20/03 A2999 RMK A01 T01960027  RH  033%=      5-min Rain = 0
KDC1 201332Z 01001KT 20/03 A2999 RMK A01 T01960027  RH  032%=      5-min Rain = 0
KDC1 201333Z 00002KT 20/03 A2999 RMK A01 T01970031  RH  033%=      5-min Rain = 0
KDC1 201334Z 36001KT 20/03 A2999 RMK A01 T01970028  RH  033%=      5-min Rain = 0
KDC1 201335Z 00001KT 20/03 A2999 RMK A01 T01970028  RH  033%=      5-min Rain = 0
KDC1 201336Z 24001KT 20/03 A2999 RMK A01 T01980027  RH  032%=      5-min Rain = 0
KDC1 201337Z 23001KT 20/03 A2999 RMK A01 T01990026  RH  032%=      5-min Rain = 0
KDC1 201338Z 00000KT 20/02 A2999 RMK A01 T01990021  RH  031%=      5-min Rain = 0
KDC1 201339Z 04000KT 20/02 A2999 RMK A01 T02000023  RH  031%=      5-min Rain = 0
KDC1 201340Z 03002KT 20/03 A2999 RMK A01 T02010025  RH  031%=      5-min Rain = 0
KDC1 201341Z 01002KT 20/02 A2999 RMK A01 T02010024  RH  031%=      5-min Rain = 0
KDC1 201342Z 35002KT 20/03 A2999 RMK A01 T02010028  RH  032%=      5-min Rain = 0
KDC1 201343Z 33002KT 20/04 A2999 RMK A01 T02000037  RH  034%=      5-min Rain = 0
KDC1 201344Z 31002KT 20/04 A2999 RMK A01 T01990039  RH  035%=      5-min Rain = 0
KDC1 201345Z 32002KT 20/02 A2999 RMK A01 T01990017  RH  030%=      5-min Rain = 0
KDC1 201346Z 33001KT 20/01 A2999 RMK A01 T01980010  RH  028%=      5-min Rain = 0
KDC1 201347Z 02001KT 20/02 A2999 RMK A01 T01990017  RH  030%=      5-min Rain = 0
KDC1 201348Z 35002KT 20/03 A2999 RMK A01 T02010027  RH  031%=      5-min Rain = 0
KDC1 201349Z 33003KT 20/03 A2999 RMK A01 T02010028  RH  032%=      5-min Rain = 0
KDC1 201350Z 33003KT 20/03 A2999 RMK A01 T02010033  RH  033%=      5-min Rain = 0
KDC1 201351Z 35003KT 20/04 A2999 RMK A01 T02010035  RH  034%=      5-min Rain = 0
KDC1 201352Z 36002KT 20/03 A2999 RMK A01 T02000026  RH  031%=      5-min Rain = 0
KDC1 201353Z 01001KT 20/03 A2999 RMK A01 T02000032  RH  033%=      5-min Rain = 0
KDC1 201354Z 34001KT 20/03 A2999 RMK A01 T02010028  RH  032%=      5-min Rain = 0
KDC1 201355Z 33002KT 20/03 A2999 RMK A01 T02020027  RH  031%=      5-min Rain = 0
KDC1 201356Z 33002KT 20/03 A2999 RMK A01 T02020027  RH  031%=      5-min Rain = 0
KDC1 201357Z 33002KT 20/03 A2999 RMK A01 T02020029  RH  032%=      5-min Rain = 0
KDC1 201358Z 34002KT 20/03 A2999 RMK A01 T02020034  RH  033%=      5-min Rain = 0
KDC1 201359Z 33002KT 20/03 A2999 RMK A01 T02020030  RH  032%=      5-min Rain = 0
KDC1 201400Z 33003KT 20/03 A2999 RMK A01 T02020027  RH  031%=      5-min Rain = 0
KDC1 201401Z 33003KT 20/03 A2999 RMK A01 T02020029  RH  032%=      5-min Rain = 0
KDC1 201402Z 33003KT 20/03 A2999 RMK A01 T02020030  RH  032%=      5-min Rain = 0
KDC1 201403Z 34003KT 20/03 A2999 RMK A01 T02030032  RH  032%=      5-min Rain = 0
KDC1 201404Z 33004KT 20/03 A2999 RMK A01 T02030033  RH  033%=      5-min Rain = 0
KDC1 201405Z 34003KT 20/04 A2999 RMK A01 T02040036  RH  033%=      5-min Rain = 0
KDC1 201406Z 34002KT 21/04 A2999 RMK A01 T02050038  RH  033%=      5-min Rain = 0
KDC1 201407Z 34001KT 21/04 A2999 RMK A01 T02060041  RH  034%=      5-min Rain = 0
KDC1 201408Z 34000KT 21/04 A2999 RMK A01 T02070042  RH  034%=      5-min Rain = 0
KDC1 201409Z 03000KT 21/04 A2999 RMK A01 T02090042  RH  033%=      5-min Rain = 0
KDC1 201410Z 01002KT 21/04 A2999 RMK A01 T02110037  RH  032%=      5-min Rain = 0
KDC1 201411Z 00002KT 21/04 A2999 RMK A01 T02120036  RH  031%=      5-min Rain = 0
KDC1 201412Z 36002KT 21/03 A2999 RMK A01 T02120034  RH  031%=      5-min Rain = 0
KDC1 201413Z 01002KT 21/03 A2999 RMK A01 T02120030  RH  030%=      5-min Rain = 0
KDC1 201414Z 01002KT 21/03 A2999 RMK A01 T02130033  RH  031%=      5-min Rain = 0
KDC1 201415Z 02002KT 21/03 A2999 RMK A01 T02140028  RH  029%=      5-min Rain = 0
KDC1 201416Z 03002KT 21/03 A2999 RMK A01 T02140027  RH  029%=      5-min Rain = 0
KDC1 201417Z 03002KT 22/03 A2999 RMK A01 T02150031  RH  030%=      5-min Rain = 0
KDC1 201418Z 02002KT 22/03 A2999 RMK A01 T02160032  RH  030%=      5-min Rain = 0
KDC1 201419Z 02003KT 22/03 A2999 RMK A01 T02180028  RH  029%=      5-min Rain = 0
KDC1 201420Z 02003KT 22/03 A2999 RMK A01 T02180029  RH  029%=      5-min Rain = 0
KDC1 201421Z 02003KT 22/03 A2999 RMK A01 T02180028  RH  029%=      5-min Rain = 0
KDC1 201422Z 03002KT 22/03 A2999 RMK A01 T02190029  RH  029%=      5-min Rain = 0
KDC1 201423Z 04002KT 22/04 A2999 RMK A01 T02200035  RH  030%=      5-min Rain = 0
KDC1 201424Z 04003KT 22/04 A2999 RMK A01 T02210036  RH  030%=      5-min Rain = 0
KDC1 201425Z 05002KT 22/04 A2999 RMK A01 T02210037  RH  030%=      5-min Rain = 0
KDC1 201426Z 05002KT 22/04 A2999 RMK A01 T02220037  RH  030%=      5-min Rain = 0
KDC1 201427Z 05001KT 22/03 A2999 RMK A01 T02240026  RH  027%=      5-min Rain = 0
KDC1 201428Z 05001KT 23/02 A2999 RMK A01 T02250015  RH  025%=      5-min Rain = 0
KDC1 201429Z 04001KT 23/01 A2999 RMK A01 T02260012  RH  024%=      5-min Rain = 0
KDC1 201430Z 06001KT 23/01 A2999 RMK A01 T02290011  RH  024%=      5-min Rain = 0
KDC1 201431Z 07002KT 23/01 A2999 RMK A01 T02310010  RH  023%=      5-min Rain = 0
KDC1 201432Z 06002KT 23/01 A30 RMK A01 T02330014  RH  024%=      5-min Rain = 0
KDC1 201433Z 06002KT 23/02 A30 RMK A01 T02340019  RH  024%=      5-min Rain = 0
KDC1 201434Z 05003KT 23/02 A30 RMK A01 T02340024  RH  025%=      5-min Rain = 0
KDC1 201435Z 05003KT 23/02 A30 RMK A01 T02330018  RH  024%=      5-min Rain = 0
KDC1 201436Z 05003KT 23/02 A30 RMK A01 T02320021  RH  025%=      5-min Rain = 0
KDC1 201437Z 06003KT 23/03 A30 RMK A01 T02310027  RH  026%=      5-min Rain = 0
KDC1 201438Z 05002KT 23/03 A30 RMK A01 T02310025  RH  026%=      5-min Rain = 0
KDC1 201439Z 05002KT 23/02 A30 RMK A01 T02310022  RH  025%=      5-min Rain = 0
KDC1 201440Z 05003KT 23/02 A30 RMK A01 T02310018  RH  025%=      5-min Rain = 0
KDC1 201441Z 06002KT 23/01 A30 RMK A01 T02310008  RH  023%=      5-min Rain = 0
KDC1 201442Z 07002KT 23/M01 A30 RMK A01 T02311008  RH  020%=      5-min Rain = 0
KDC1 201443Z 09002KT 23/M01 A30 RMK A01 T02321009  RH  020%=      5-min Rain = 0
KDC1 201444Z 09002KT 23/01 A30 RMK A01 T02340006  RH  022%=      5-min Rain = 0
KDC1 201445Z 08002KT 24/01 A30 RMK A01 T02360007  RH  022%=      5-min Rain = 0
KDC1 201446Z 09001KT 24/01 A30 RMK A01 T02360007  RH  022%=      5-min Rain = 0
KDC1 201447Z 09000KT 24/00 A30 RMK A01 T02370002  RH  021%=      5-min Rain = 0
KDC1 201448Z 12000KT 24/00 A30 RMK A01 T02390001  RH  021%=      5-min Rain = 0
KDC1 201449Z 13002KT 24/03 A30 RMK A01 T02410025  RH  024%=      5-min Rain = 0
KDC1 201450Z 13002KT 24/03 A30 RMK A01 T02400033  RH  026%=      5-min Rain = 0
KDC1 201451Z 14002KT 24/03 A30 RMK A01 T02380030  RH  026%=      5-min Rain = 0
KDC1 201452Z 13002KT 24/04 A30 RMK A01 T02370041  RH  028%=      5-min Rain = 0
KDC1 201453Z 12003KT 24/05 A30 RMK A01 T02350045  RH  029%=      5-min Rain = 0
KDC1 201454Z 12003KT 24/04 A30 RMK A01 T02350041  RH  028%=      5-min Rain = 0
KDC1 201455Z 12002KT 23/05 A30 RMK A01 T02340048  RH  030%=      5-min Rain = 0
KDC1 201456Z 13002KT 23/04 A30 RMK A01 T02340041  RH  028%=      5-min Rain = 0
KDC1 201457Z 11001KT 23/03 A30 RMK A01 T02340030  RH  026%=      5-min Rain = 0
KDC1 201458Z 12001KT 24/03 A30 RMK A01 T02360031  RH  026%=      5-min Rain = 0
KDC1 201459Z 11001KT 24/04 A30 RMK A01 T02370039  RH  028%=      5-min Rain = 0
KDC1 201500Z 10001KT 24/04 A30 RMK A01 T02370040  RH  028%=      5-min Rain = 0
KDC1 201501Z 06002KT 24/03 A30 RMK A01 T02380032  RH  026%=      5-min Rain = 0
KDC1 201502Z 07002KT 24/03 A30 RMK A01 T02400029  RH  025%=      5-min Rain = 0
KDC1 201503Z 05002KT 24/03 A30 RMK A01 T02410025  RH  024%=      5-min Rain = 0
KDC1 201504Z 05002KT 24/03 A30 RMK A01 T02420028  RH  025%=      5-min Rain = 0
KDC1 201505Z 04002KT 24/03 A30 RMK A01 T02430029  RH  025%=      5-min Rain = 0
KDC1 201506Z 04003KT 25/03 A30 RMK A01 T02450025  RH  024%=      5-min Rain = 0
KDC1 201507Z 04003KT 25/03 A30 RMK A01 T02450026  RH  024%=      5-min Rain = 0
KDC1 201508Z 04003KT 24/03 A30 RMK A01 T02440033  RH  025%=      5-min Rain = 0
KDC1 201509Z 04003KT 24/04 A30 RMK A01 T02440039  RH  026%=      5-min Rain = 0
KDC1 201510Z 05003KT 25/05 A30 RMK A01 T02450045  RH  027%=      5-min Rain = 0
KDC1 201511Z 07002KT 25/04 A30 RMK A01 T02450039  RH  026%=      5-min Rain = 0
KDC1 201512Z 04003KT 24/04 A30 RMK A01 T02440037  RH  026%=      5-min Rain = 0
KDC1 201513Z 03003KT 24/03 A30 RMK A01 T02440031  RH  025%=      5-min Rain = 0
KDC1 201514Z 03003KT 24/03 A30 RMK A01 T02440027  RH  024%=      5-min Rain = 0
KDC1 201515Z 04002KT 24/03 A30 RMK A01 T02440033  RH  025%=      5-min Rain = 0
KDC1 201516Z 05001KT 24/03 A30 RMK A01 T02440033  RH  025%=      5-min Rain = 0
KDC1 201517Z 05002KT 25/04 A30 RMK A01 T02450035  RH  026%=      5-min Rain = 0
KDC1 201518Z 04002KT 25/03 A30 RMK A01 T02460031  RH  025%=      5-min Rain = 0
KDC1 201519Z 03002KT 25/03 A30 RMK A01 T02460031  RH  025%=      5-min Rain = 0
KDC1 201520Z 03001KT 25/03 A30 RMK A01 T02480032  RH  025%=      5-min Rain = 0
KDC1 201521Z 04001KT 25/03 A30 RMK A01 T02490031  RH  024%=      5-min Rain = 0
KDC1 201522Z 04002KT 25/03 A30 RMK A01 T02500032  RH  024%=      5-min Rain = 0
KDC1 201523Z 03002KT 25/04 A30 RMK A01 T02500035  RH  025%=      5-min Rain = 0
KDC1 201524Z 05002KT 25/04 A30 RMK A01 T02510038  RH  025%=      5-min Rain = 0
KDC1 201525Z 06002KT 25/04 A30 RMK A01 T02510037  RH  025%=      5-min Rain = 0
KDC1 201526Z 07002KT 25/03 A30 RMK A01 T02520034  RH  024%=      5-min Rain = 0
KDC1 201527Z 05002KT 25/03 A30 RMK A01 T02540031  RH  023%=      5-min Rain = 0
KDC1 201528Z 07002KT 26/03 A30 RMK A01 T02550028  RH  023%=      5-min Rain = 0
KDC1 201529Z 08002KT 26/03 A30 RMK A01 T02560025  RH  022%=      5-min Rain = 0
KDC1 201530Z 07001KT 26/02 A30 RMK A01 T02570019  RH  021%=      5-min Rain = 0
KDC1 201531Z 09002KT 26/02 A2999 RMK A01 T02580021  RH  021%=      5-min Rain = 0
KDC1 201532Z 09001KT 26/02 A2999 RMK A01 T02580019  RH  021%=      5-min Rain = 0
KDC1 201533Z 11001KT 26/02 A2999 RMK A01 T02600015  RH  020%=      5-min Rain = 0
KDC1 201534Z 09001KT 26/02 A2999 RMK A01 T02620016  RH  020%=      5-min Rain = 0
KDC1 201535Z 09002KT 26/02 A2999 RMK A01 T02640015  RH  020%=      5-min Rain = 0
KDC1 201536Z 12001KT 26/00 A2999 RMK A01 T02640004  RH  018%=      5-min Rain = 0
KDC1 201537Z 08000KT 27/01 A2999 RMK A01 T02650007  RH  019%=      5-min Rain = 0
KDC1 201538Z 05002KT 27/01 A2999 RMK A01 T02680013  RH  019%=      5-min Rain = 0
KDC1 201539Z 02003KT 27/02 A2999 RMK A01 T02690020  RH  020%=      5-min Rain = 0
KDC1 201540Z 01003KT 27/02 A2999 RMK A01 T02680018  RH  020%=      5-min Rain = 0
KDC1 201541Z 01003KT 27/02 A2999 RMK A01 T02660021  RH  020%=      5-min Rain = 0
KDC1 201542Z 02002KT 27/03 A2999 RMK A01 T02650025  RH  021%=      5-min Rain = 0
KDC1 201543Z 04001KT 26/02 A2999 RMK A01 T02640022  RH  021%=      5-min Rain = 0
KDC1 201544Z 04002KT 27/02 A2999 RMK A01 T02650024  RH  021%=      5-min Rain = 0
KDC1 201545Z 04002KT 27/01 A2999 RMK A01 T02670014  RH  019%=      5-min Rain = 0
KDC1 201546Z 04003KT 27/02 A2999 RMK A01 T02680018  RH  020%=      5-min Rain = 0
KDC1 201547Z 04002KT 27/02 A2999 RMK A01 T02680020  RH  020%=      5-min Rain = 0
KDC1 201548Z 07001KT 27/02 A2999 RMK A01 T02690015  RH  019%=      5-min Rain = 0
KDC1 201549Z 06001KT 27/02 A2999 RMK A01 T02700015  RH  019%=      5-min Rain = 0
KDC1 201550Z 04002KT 27/02 A2999 RMK A01 T02730024  RH  020%=      5-min Rain = 0
KDC1 201551Z 02002KT 27/02 A2999 RMK A01 T02740020  RH  019%=      5-min Rain = 0
KDC1 201552Z 02002KT 28/02 A2999 RMK A01 T02750017  RH  019%=      5-min Rain = 0
KDC1 201553Z 02002KT 28/01 A2999 RMK A01 T02760013  RH  018%=      5-min Rain = 0
KDC1 201554Z 03001KT 28/01 A2999 RMK A01 T02750006  RH  017%=      5-min Rain = 0
KDC1 201555Z 03001KT 27/01 A2999 RMK A01 T02740008  RH  018%=      5-min Rain = 0
KDC1 201556Z 05001KT 27/01 A2999 RMK A01 T02740007  RH  018%=      5-min Rain = 0
KDC1 201557Z 13003KT 28/05 A2999 RMK A01 T02760047  RH  023%=      5-min Rain = 0
KDC1 201558Z 13003KT 28/05 A2999 RMK A01 T02770046  RH  023%=      5-min Rain = 0
KDC1 201559Z 14002KT 28/04 A2999 RMK A01 T02760042  RH  022%=      5-min Rain = 0
KDC1 201600Z 14003KT 28/04 A2999 RMK A01 T02750042  RH  022%=      5-min Rain = 0
KDC1 201601Z 13004KT 28/06 A2999 RMK A01 T02750061  RH  026%=      5-min Rain = 0
KDC1 201602Z 12003KT 28/04 A2999 RMK A01 T02750041  RH  022%=      5-min Rain = 0
KDC1 201603Z 11003KT 28/04 A2999 RMK A01 T02760043  RH  023%=      5-min Rain = 0
KDC1 201604Z 10003KT 28/02 A2999 RMK A01 T02760024  RH  020%=      5-min Rain = 0
KDC1 201605Z 10004KT 28/05 A2999 RMK A01 T02770051  RH  024%=      5-min Rain = 0
KDC1 201606Z 10003KT 28/07 A2998 RMK A01 T02760065  RH  026%=      5-min Rain = 0
KDC1 201607Z 11003KT 28/06 A2998 RMK A01 T02750062  RH  026%=      5-min Rain = 0
KDC1 201608Z 11004KT 28/07 A2998 RMK A01 T02750067  RH  027%=      5-min Rain = 0
KDC1 201609Z 11003KT 28/07 A2998 RMK A01 T02760067  RH  026%=      5-min Rain = 0
KDC1 201610Z 11003KT 28/06 A2998 RMK A01 T02760063  RH  026%=      5-min Rain = 0
KDC1 201611Z 12004KT 28/06 A2998 RMK A01 T02750064  RH  026%=      5-min Rain = 0
KDC1 201612Z 12004KT 28/08 A2998 RMK A01 T02750081  RH  029%=      5-min Rain = 0
KDC1 201613Z 11004KT 28/07 A2998 RMK A01 T02760070  RH  027%=      5-min Rain = 0
KDC1 201614Z 13003KT 28/07 A2998 RMK A01 T02760074  RH  028%=      5-min Rain = 0
KDC1 201615Z 13004KT 28/08 A2998 RMK A01 T02780083  RH  029%=      5-min Rain = 0
KDC1 201616Z 13004KT 28/07 A2998 RMK A01 T02790074  RH  027%=      5-min Rain = 0
KDC1 201617Z 13005KT 28/08 A2998 RMK A01 T02790079  RH  028%=      5-min Rain = 0
KDC1 201618Z 13005KT 28/07 A2998 RMK A01 T02800074  RH  027%=      5-min Rain = 0
KDC1 201619Z 13005KT 28/07 A2998 RMK A01 T02790071  RH  027%=      5-min Rain = 0
KDC1 201620Z 13005KT 28/08 A2998 RMK A01 T02790077  RH  028%=      5-min Rain = 0
KDC1 201621Z 13005KT 28/07 A2998 RMK A01 T02800073  RH  027%=      5-min Rain = 0
KDC1 201622Z 12004KT 28/06 A2998 RMK A01 T02800058  RH  024%=      5-min Rain = 0
KDC1 201623Z 12004KT 28/08 A2998 RMK A01 T02810083  RH  029%=      5-min Rain = 0
KDC1 201624Z 10004KT 28/06 A2998 RMK A01 T02830063  RH  025%=      5-min Rain = 0
KDC1 201625Z 11005KT 29/06 A2998 RMK A01 T02880055  RH  023%=      5-min Rain = 0
KDC1 201626Z 10006KT 29/04 A2998 RMK A01 T02910039  RH  020%=      5-min Rain = 0
KDC1 201627Z 09005KT 29/02 A2998 RMK A01 T02910018  RH  017%=      5-min Rain = 0
KDC1 201628Z 09006KT 29/02 A2998 RMK A01 T02900016  RH  017%=      5-min Rain = 0
KDC1 201629Z 07005KT 29/02 A2998 RMK A01 T02910015  RH  017%=      5-min Rain = 0
KDC1 201630Z 08005KT 29/02 A2998 RMK A01 T02910015  RH  017%=      5-min Rain = 0
KDC1 201631Z 09007KT 30/01 A2998 RMK A01 T02950009  RH  016%=      5-min Rain = 0
KDC1 201632Z 09007KT 30/01 A2998 RMK A01 T02950008  RH  016%=      5-min Rain = 0
KDC1 201633Z 08005KT 30/01 A2998 RMK A01 T02950012  RH  016%=      5-min Rain = 0
KDC1 201634Z 09005KT 30/01 A2998 RMK A01 T02950013  RH  016%=      5-min Rain = 0
KDC1 201635Z 11005KT 30/04 A2998 RMK A01 T02950039  RH  020%=      5-min Rain = 0
KDC1 201641Z 12004KT 30/03 A2998 RMK A01 T02960032  RH  018%=      5-min Rain = 0
KDC1 201642Z 11004KT 30/07 A2998 RMK A01 T02970065  RH  023%=      5-min Rain = 0
KDC1 201643Z 10005KT 30/04 A2998 RMK A01 T03000038  RH  019%=      5-min Rain = 0
KDC1 201644Z 09004KT 30/02 A2998 RMK A01 T03010022  RH  017%=      5-min Rain = 0
KDC1 201645Z 09005KT 30/01 A2997 RMK A01 T03030010  RH  015%=      5-min Rain = 0
KDC1 201646Z 09004KT 30/01 A2997 RMK A01 T03030012  RH  015%=      5-min Rain = 0
KDC1 201647Z 11005KT 31/03 A2997 RMK A01 T03050034  RH  018%=      5-min Rain = 0
KDC1 201648Z 11003KT 31/05 A2997 RMK A01 T03070047  RH  019%=      5-min Rain = 0
KDC1 201649Z 12003KT 31/05 A2997 RMK A01 T03060050  RH  020%=      5-min Rain = 0
KDC1 201650Z 12004KT 30/08 A2997 RMK A01 T03040084  RH  025%=      5-min Rain = 0
KDC1 201651Z 12005KT 30/08 A2997 RMK A01 T03030082  RH  025%=      5-min Rain = 0
KDC1 201652Z 12004KT 30/08 A2997 RMK A01 T03030082  RH  025%=      5-min Rain = 0
KDC1 201653Z 12006KT 30/09 A2997 RMK A01 T03030089  RH  026%=      5-min Rain = 0
KDC1 201654Z 13006KT 30/10 A2997 RMK A01 T03040096  RH  028%=      5-min Rain = 0
KDC1 201655Z 12006KT 30/07 A2997 RMK A01 T03040067  RH  023%=      5-min Rain = 0
KDC1 201656Z 12005KT 30/07 A2997 RMK A01 T03040072  RH  023%=      5-min Rain = 0
KDC1 201657Z 12007KT 30/08 A2997 RMK A01 T03030084  RH  025%=      5-min Rain = 0
KDC1 201658Z 12007KT 30/08 A2997 RMK A01 T03030081  RH  025%=      5-min Rain = 0
KDC1 201659Z 12007KT 30/08 A2997 RMK A01 T03040075  RH  024%=      5-min Rain = 0
KDC1 201700Z 12006KT 30/08 A2997 RMK A01 T03040077  RH  024%=      5-min Rain = 0
KDC1 201701Z 11006KT 30/07 A2997 RMK A01 T03040071  RH  023%=      5-min Rain = 0
KDC1 201702Z 11005KT 31/05 A2997 RMK A01 T03050052  RH  020%=      5-min Rain = 0
KDC1 201703Z 11004KT 31/06 A2997 RMK A01 T03070056  RH  021%=      5-min Rain = 0
KDC1 201704Z 11004KT 31/05 A2997 RMK A01 T03090050  RH  020%=      5-min Rain = 0
KDC1 201705Z 11005KT 31/06 A2997 RMK A01 T03110057  RH  020%=      5-min Rain = 0
KDC1 201706Z 11005KT 31/06 A2997 RMK A01 T03130056  RH  020%=      5-min Rain = 0
KDC1 201707Z 12005KT 32/03 A2997 RMK A01 T03150032  RH  017%=      5-min Rain = 0
KDC1 201708Z 12006KT 32/03 A2997 RMK A01 T03160034  RH  017%=      5-min Rain = 0
KDC1 201709Z 12005KT 32/04 A2997 RMK A01 T03160041  RH  018%=      5-min Rain = 0
KDC1 201710Z 13004KT 32/04 A2997 RMK A01 T03150038  RH  018%=      5-min Rain = 0
KDC1 201711Z 13004KT 32/04 A2997 RMK A01 T03160035  RH  017%=      5-min Rain = 0
KDC1 201712Z 13003KT 32/03 A2997 RMK A01 T03170027  RH  016%=      5-min Rain = 0
KDC1 201713Z 12002KT 32/01 A2997 RMK A01 T03180012  RH  014%=      5-min Rain = 0
KDC1 201714Z 12003KT 32/03 A2997 RMK A01 T03190034  RH  016%=      5-min Rain = 0
KDC1 201715Z 11002KT 32/06 A2997 RMK A01 T03210059  RH  019%=      5-min Rain = 0
KDC1 201716Z 07004KT 32/02 A2997 RMK A01 T03210016  RH  014%=      5-min Rain = 0
KDC1 201717Z 08003KT 32/M00 A2997 RMK A01 T03221001  RH  013%=      5-min Rain = 0
KDC1 201718Z 07003KT 32/M00 A2997 RMK A01 T03241001  RH  012%=      5-min Rain = 0
KDC1 201719Z 12003KT 33/01 A2997 RMK A01 T03250008  RH  013%=      5-min Rain = 0
KDC1 201720Z 12003KT 33/05 A2997 RMK A01 T03250045  RH  017%=      5-min Rain = 0
KDC1 201721Z 07004KT 32/02 A2997 RMK A01 T03240017  RH  014%=      5-min Rain = 0
KDC1 201722Z 09003KT 33/02 A2997 RMK A01 T03250015  RH  014%=      5-min Rain = 0
KDC1 201723Z 09003KT 33/01 A2997 RMK A01 T03270014  RH  014%=      5-min Rain = 0
KDC1 201724Z 09003KT 33/00 A2996 RMK A01 T03270001  RH  012%=      5-min Rain = 0
KDC1 201725Z 10002KT 33/00 A2996 RMK A01 T03270002  RH  012%=      5-min Rain = 0
KDC1 201726Z 12004KT 33/02 A2996 RMK A01 T03290018  RH  014%=      5-min Rain = 0
KDC1 201727Z 12004KT 33/05 A2996 RMK A01 T03320047  RH  017%=      5-min Rain = 0
KDC1 201728Z 11003KT 33/04 A2996 RMK A01 T03320035  RH  015%=      5-min Rain = 0
KDC1 201729Z 08005KT 33/01 A2996 RMK A01 T03310013  RH  013%=      5-min Rain = 0
KDC1 201730Z 10003KT 33/00 A2996 RMK A01 T03320002  RH  012%=      5-min Rain = 0
KDC1 201731Z 11003KT 33/M00 A2996 RMK A01 T03331001  RH  012%=      5-min Rain = 0
KDC1 201732Z 10003KT 33/01 A2996 RMK A01 T03330007  RH  013%=      5-min Rain = 0
KDC1 201733Z 11004KT 33/03 A2996 RMK A01 T03340033  RH  015%=      5-min Rain = 0
KDC1 201734Z 11005KT 33/02 A2996 RMK A01 T03320021  RH  014%=      5-min Rain = 0
KDC1 201735Z 11004KT 33/00 A2996 RMK A01 T03300004  RH  012%=      5-min Rain = 0
KDC1 201736Z 11002KT 33/01 A2996 RMK A01 T03300010  RH  013%=      5-min Rain = 0
KDC1 201737Z 13004KT 33/02 A2996 RMK A01 T03330018  RH  014%=      5-min Rain = 0
KDC1 201738Z 12004KT 33/03 A2996 RMK A01 T03330034  RH  015%=      5-min Rain = 0
KDC1 201739Z 12004KT 33/05 A2996 RMK A01 T03330053  RH  017%=      5-min Rain = 0
KDC1 201740Z 13003KT 33/04 A2996 RMK A01 T03310044  RH  017%=      5-min Rain = 0
KDC1 201741Z 13004KT 33/08 A2996 RMK A01 T03310078  RH  021%=      5-min Rain = 0
KDC1 201742Z 11007KT 33/06 A2996 RMK A01 T03310060  RH  019%=      5-min Rain = 0
KDC1 201743Z 12005KT 33/01 A2996 RMK A01 T03310013  RH  013%=      5-min Rain = 0
KDC1 201744Z 12005KT 33/02 A2996 RMK A01 T03310023  RH  014%=      5-min Rain = 0
KDC1 201745Z 12005KT 33/06 A2996 RMK A01 T03320055  RH  018%=      5-min Rain = 0
KDC1 201746Z 11004KT 33/04 A2996 RMK A01 T03330044  RH  016%=      5-min Rain = 0
KDC1 201747Z 10004KT 34/04 A2996 RMK A01 T03380038  RH  015%=      5-min Rain = 0
KDC1 201748Z 08004KT 34/00 A2996 RMK A01 T03370000  RH  012%=      5-min Rain = 0
KDC1 201749Z 06003KT 34/M00 A2996 RMK A01 T03351002  RH  012%=      5-min Rain = 0
KDC1 201750Z 10005KT 34/00 A2996 RMK A01 T03370001  RH  012%=      5-min Rain = 0
KDC1 201751Z 09004KT 34/M01 A2995 RMK A01 T03391006  RH  011%=      5-min Rain = 0
KDC1 201752Z 08004KT 34/M01 A2995 RMK A01 T03381007  RH  011%=      5-min Rain = 0
KDC1 201753Z 05005KT 34/00 A2995 RMK A01 T033900-0  RH  012%=      5-min Rain = 0
KDC1 201754Z 04004KT 34/M00 A2995 RMK A01 T03411003  RH  011%=      5-min Rain = 0
KDC1 201755Z 00003KT 34/00 A2995 RMK A01 T03400000  RH  011%=      5-min Rain = 0
KDC1 201756Z 34003KT 34/00 A2995 RMK A01 T03430002  RH  012%=      5-min Rain = 0
KDC1 201757Z 33002KT 34/00 A2995 RMK A01 T03430001  RH  011%=      5-min Rain = 0
KDC1 201758Z 31003KT 34/00 A2995 RMK A01 T03440003  RH  011%=      5-min Rain = 0
KDC1 201759Z 19004KT 35/03 A2995 RMK A01 T03460031  RH  014%=      5-min Rain = 0
KDC1 201800Z 19003KT 35/04 A2995 RMK A01 T03450041  RH  015%=      5-min Rain = 0
KDC1 201801Z 15003KT 34/04 A2995 RMK A01 T03430041  RH  015%=      5-min Rain = 0
KDC1 201802Z 12003KT 34/01 A2995 RMK A01 T03420011  RH  012%=      5-min Rain = 0
KDC1 201803Z 08003KT 34/01 A2995 RMK A01 T03420008  RH  012%=      5-min Rain = 0
KDC1 201804Z 03004KT 34/01 A2995 RMK A01 T03430008  RH  012%=      5-min Rain = 0
KDC1 201805Z 00007KT 34/01 A2995 RMK A01 T03430011  RH  012%=      5-min Rain = 0
KDC1 201806Z 00007KT 34/01 A2995 RMK A01 T03420011  RH  012%=      5-min Rain = 0
KDC1 201807Z 03005KT 34/01 A2995 RMK A01 T03420013  RH  013%=      5-min Rain = 0
KDC1 201808Z 01005KT 34/M00 A2995 RMK A01 T03431002  RH  011%=      5-min Rain = 0
KDC1 201809Z 02005KT 34/M01 A2995 RMK A01 T03431007  RH  011%=      5-min Rain = 0
KDC1 201810Z 02003KT 34/M01 A2995 RMK A01 T03431005  RH  011%=      5-min Rain = 0
KDC1 201811Z 13002KT 34/M01 A2995 RMK A01 T03441008  RH  011%=      5-min Rain = 0
KDC1 201812Z 16002KT 35/M01 A2995 RMK A01 T03451008  RH  011%=      5-min Rain = 0
KDC1 201813Z 19003KT 35/01 A2995 RMK A01 T03460006  RH  012%=      5-min Rain = 0
KDC1 201814Z 23006G11KT 35/00 A2995 RMK A01 T03470000  RH  011%=      5-min Rain = 0
KDC1 201815Z 28010KT 35/01 A2995 RMK A01 T03500005  RH  011%=      5-min Rain = 0
KDC1 201816Z 28009KT 36/00 A2995 RMK A01 T03550003  RH  011%=      5-min Rain = 0
KDC1 201817Z 28014KT 36/M02 A2995 RMK A01 T03561019  RH  009%=      5-min Rain = 0
KDC1 201818Z 26013KT 36/M03 A2995 RMK A01 T03581030  RH  008%=      5-min Rain = 0
KDC1 201819Z 25015KT 36/M01 A2995 RMK A01 T03601010  RH  010%=      5-min Rain = 0
KDC1 201820Z 26015KT 36/M03 A2995 RMK A01 T03571026  RH  009%=      5-min Rain = 0
KDC1 201821Z 26016KT 36/M03 A2995 RMK A01 T03551032  RH  008%=      5-min Rain = 0
KDC1 201822Z 27017KT 36/M04 A2995 RMK A01 T03561044  RH  008%=      5-min Rain = 0
KDC1 201823Z 26013KT 36/M04 A2995 RMK A01 T03601044  RH  007%=      5-min Rain = 0
KDC1 201824Z 27013G18KT 36/M04 A2995 RMK A01 T03601040  RH  008%=      5-min Rain = 0
KDC1 201825Z 28016KT 36/M05 A2995 RMK A01 T03621046  RH  007%=      5-min Rain = 0
KDC1 201826Z 27014KT 36/M05 A2995 RMK A01 T03621052  RH  007%=      5-min Rain = 0
KDC1 201827Z 29014KT 36/M05 A2994 RMK A01 T03611049  RH  007%=      5-min Rain = 0
KDC1 201828Z 28015KT 36/M05 A2994 RMK A01 T03631054  RH  007%=      5-min Rain = 0
KDC1 201829Z 26013KT 36/M03 A2995 RMK A01 T03611034  RH  008%=      5-min Rain = 0
KDC1 201830Z 26015G23KT 36/M02 A2995 RMK A01 T03611019  RH  009%=      5-min Rain = 0
KDC1 201831Z 27017KT 36/M03 A2995 RMK A01 T03631028  RH  008%=      5-min Rain = 0
KDC1 201832Z 28018KT 36/M05 A2994 RMK A01 T03611047  RH  007%=      5-min Rain = 0
KDC1 201833Z 29017KT 36/M05 A2994 RMK A01 T03601052  RH  007%=      5-min Rain = 0
KDC1 201834Z 27019KT 36/M05 A2994 RMK A01 T03611047  RH  007%=      5-min Rain = 0
KDC1 201835Z 28015KT 36/M05 A2994 RMK A01 T03611050  RH  007%=      5-min Rain = 0
KDC1 201836Z 28010KT 36/M05 A2995 RMK A01 T03641047  RH  007%=      5-min Rain = 0
KDC1 201837Z 28012KT 37/M05 A2994 RMK A01 T03661051  RH  007%=      5-min Rain = 0
KDC1 201838Z 28010KT 36/M05 A2994 RMK A01 T03621053  RH  007%=      5-min Rain = 0
KDC1 201839Z 28014KT 36/M05 A2994 RMK A01 T03601050  RH  007%=      5-min Rain = 0
KDC1 201840Z 27014KT 36/M05 A2994 RMK A01 T03611051  RH  007%=      5-min Rain = 0
KDC1 201841Z 27018KT 36/M05 A2994 RMK A01 T03621052  RH  007%=      5-min Rain = 0
KDC1 201842Z 28016KT 36/M05 A2994 RMK A01 T03611053  RH  007%=      5-min Rain = 0
KDC1 201843Z 29016KT 36/M05 A2994 RMK A01 T03621051  RH  007%=      5-min Rain = 0
KDC1 201844Z 29015KT 36/M05 A2994 RMK A01 T03621054  RH  007%=      5-min Rain = 0
KDC1 201845Z 30014KT 36/M05 A2994 RMK A01 T03601053  RH  007%=      5-min Rain = 0
KDC1 201846Z 29013KT 36/M06 A2994 RMK A01 T03601055  RH  007%=      5-min Rain = 0
KDC1 201847Z 27013KT 36/M05 A2994 RMK A01 T03601052  RH  007%=      5-min Rain = 0
KDC1 201848Z 26013KT 36/M04 A2994 RMK A01 T03621041  RH  007%=      5-min Rain = 0
KDC1 201849Z 26018KT 36/M04 A2994 RMK A01 T03631035  RH  008%=      5-min Rain = 0
KDC1 201850Z 26015G21KT 36/M04 A2994 RMK A01 T03601040  RH  008%=      5-min Rain = 0
KDC1 201851Z 25012KT 36/M03 A2994 RMK A01 T03571031  RH  008%=      5-min Rain = 0
KDC1 201852Z 24010KT 36/M03 A2994 RMK A01 T03571033  RH  008%=      5-min Rain = 0
KDC1 201853Z 23005KT 36/M04 A2994 RMK A01 T03561037  RH  008%=      5-min Rain = 0
KDC1 201854Z 25005KT 36/M04 A2994 RMK A01 T03571041  RH  008%=      5-min Rain = 0
KDC1 201855Z 23006KT 36/M03 A2994 RMK A01 T03571031  RH  008%=      5-min Rain = 0
KDC1 201856Z 25006KT 36/M03 A2994 RMK A01 T03591032  RH  008%=      5-min Rain = 0
KDC1 201857Z 27014G23KT 36/M03 A2994 RMK A01 T03601031  RH  008%=      5-min Rain = 0
KDC1 201858Z 25015KT 36/M02 A2994 RMK A01 T03601019  RH  009%=      5-min Rain = 0
KDC1 201859Z 24012G18KT 36/M01 A2994 RMK A01 T03591006  RH  010%=      5-min Rain = 0
KDC1 201900Z 27014KT 36/M03 A2994 RMK A01 T03571026  RH  009%=      5-min Rain = 0
KDC1 201901Z 26016G24KT 36/M05 A2993 RMK A01 T03591046  RH  007%=      5-min Rain = 0
KDC1 201902Z 27018KT 36/M04 A2993 RMK A01 T03641043  RH  007%=      5-min Rain = 0
KDC1 201903Z 28013KT 36/M06 A2993 RMK A01 T03621055  RH  007%=      5-min Rain = 0
KDC1 201904Z 27014KT 36/M05 A2993 RMK A01 T03591054  RH  007%=      5-min Rain = 0
KDC1 201905Z 27014KT 36/M05 A2993 RMK A01 T03591052  RH  007%=      5-min Rain = 0
KDC1 201906Z 27013KT 36/M05 A2993 RMK A01 T03611047  RH  007%=      5-min Rain = 0
KDC1 201907Z 28016G22KT 36/M03 A2993 RMK A01 T03641034  RH  008%=      5-min Rain = 0
KDC1 201908Z 24011KT 36/M01 A2993 RMK A01 T03631006  RH  010%=      5-min Rain = 0
KDC1 201909Z 25013KT 36/M02 A2993 RMK A01 T03621017  RH  009%=      5-min Rain = 0
KDC1 201910Z 24010KT 36/M03 A2993 RMK A01 T03581025  RH  009%=      5-min Rain = 0
KDC1 201911Z 25012KT 36/M02 A2993 RMK A01 T03581018  RH  009%=      5-min Rain = 0
KDC1 201912Z 27018KT 36/M03 A2993 RMK A01 T03611030  RH  008%=      5-min Rain = 0
KDC1 201913Z 27017KT 36/M05 A2993 RMK A01 T03631046  RH  007%=      5-min Rain = 0
KDC1 201914Z 27012KT 36/M05 A2993 RMK A01 T03631046  RH  007%=      5-min Rain = 0
KDC1 201915Z 26011G18KT 36/M04 A2993 RMK A01 T03641042  RH  007%=      5-min Rain = 0
KDC1 201916Z 27011G16KT 36/M05 A2993 RMK A01 T03621047  RH  007%=      5-min Rain = 0
KDC1 201917Z 27007KT 36/M06 A2993 RMK A01 T03601058  RH  007%=      5-min Rain = 0
KDC1 201918Z 26014G19KT 36/M04 A2993 RMK A01 T03581042  RH  008%=      5-min Rain = 0
KDC1 201919Z 26012KT 36/M03 A2993 RMK A01 T03591027  RH  008%=      5-min Rain = 0
KDC1 201920Z 26011KT 36/M03 A2993 RMK A01 T03601030  RH  008%=      5-min Rain = 0
KDC1 201921Z 25013KT 36/M03 A2993 RMK A01 T03591029  RH  008%=      5-min Rain = 0
KDC1 201922Z 25011KT 36/M03 A2993 RMK A01 T03571030  RH  008%=      5-min Rain = 0
KDC1 201923Z 25008KT 36/M04 A2993 RMK A01 T03571040  RH  008%=      5-min Rain = 0
KDC1 201924Z 25010KT 36/M03 A2993 RMK A01 T03581026  RH  009%=      5-min Rain = 0
KDC1 201925Z 25014KT 36/M02 A2993 RMK A01 T03591018  RH  009%=      5-min Rain = 0
KDC1 201926Z 25017KT 36/M02 A2993 RMK A01 T03611017  RH  009%=      5-min Rain = 0
KDC1 201927Z 25014KT 36/M04 A2993 RMK A01 T03601037  RH  008%=      5-min Rain = 0
KDC1 201928Z 26012KT 36/M04 A2993 RMK A01 T03581042  RH  008%=      5-min Rain = 0
KDC1 201929Z 25012KT 36/M04 A2993 RMK A01 T03581038  RH  008%=      5-min Rain = 0
KDC1 201930Z 26010KT 36/M04 A2993 RMK A01 T03601037  RH  008%=      5-min Rain = 0
KDC1 201931Z 27006KT 36/M06 A2993 RMK A01 T03611055  RH  007%=      5-min Rain = 0
KDC1 201932Z 24007KT 36/M04 A2993 RMK A01 T03581043  RH  008%=      5-min Rain = 0
KDC1 201933Z 25008KT 36/M03 A2993 RMK A01 T03581034  RH  008%=      5-min Rain = 0
KDC1 201934Z 25009KT 36/M04 A2993 RMK A01 T03591035  RH  008%=      5-min Rain = 0
KDC1 201935Z 25008KT 36/M04 A2993 RMK A01 T03591043  RH  008%=      5-min Rain = 0
KDC1 201936Z 26011KT 36/M04 A2993 RMK A01 T03601038  RH  008%=      5-min Rain = 0
KDC1 201937Z 28012KT 36/M05 A2993 RMK A01 T03631049  RH  007%=      5-min Rain = 0
KDC1 201938Z 28013G19KT 37/M05 A2993 RMK A01 T03661050  RH  007%=      5-min Rain = 0
KDC1 201939Z 28014KT 37/M05 A2992 RMK A01 T03661051  RH  007%=      5-min Rain = 0
KDC1 201940Z 26017KT 37/M04 A2992 RMK A01 T03661043  RH  007%=      5-min Rain = 0
KDC1 201941Z 25016G21KT 37/M03 A2993 RMK A01 T03671027  RH  008%=      5-min Rain = 0
KDC1 201942Z 26013KT 36/M03 A2993 RMK A01 T03631031  RH  008%=      5-min Rain = 0
KDC1 201943Z 24015G20KT 36/M03 A2992 RMK A01 T03621025  RH  008%=      5-min Rain = 0
KDC1 201944Z 22010KT 36/M03 A2992 RMK A01 T03611034  RH  008%=      5-min Rain = 0
KDC1 201945Z 24010KT 36/M03 A2992 RMK A01 T03611031  RH  008%=      5-min Rain = 0
KDC1 201946Z 24005G11KT 36/M03 A2992 RMK A01 T03631031  RH  008%=      5-min Rain = 0
KDC1 201947Z 24004KT 37/M03 A2992 RMK A01 T03661034  RH  008%=      5-min Rain = 0
KDC1 201948Z 23003KT 37/M03 A2992 RMK A01 T03681031  RH  008%=      5-min Rain = 0
KDC1 201949Z 25006KT 37/M04 A2992 RMK A01 T03681037  RH  008%=      5-min Rain = 0
KDC1 201950Z 25006KT 37/M04 A2992 RMK A01 T03651043  RH  007%=      5-min Rain = 0
KDC1 201951Z 25008KT 36/M04 A2992 RMK A01 T03611036  RH  008%=      5-min Rain = 0
KDC1 201952Z 26014KT 36/M02 A2992 RMK A01 T03611023  RH  009%=      5-min Rain = 0
KDC1 201953Z 25015KT 36/M02 A2992 RMK A01 T03631016  RH  009%=      5-min Rain = 0
KDC1 201954Z 25017KT 36/M00 A2992 RMK A01 T03631001  RH  010%=      5-min Rain = 0
KDC1 201955Z 25014KT 36/M04 A2992 RMK A01 T03601036  RH  008%=      5-min Rain = 0
KDC1 201956Z 25011G16KT 36/M05 A2992 RMK A01 T03591048  RH  007%=      5-min Rain = 0
KDC1 201957Z 26011KT 36/M05 A2992 RMK A01 T03591045  RH  007%=      5-min Rain = 0
KDC1 201958Z 28012KT 36/M04 A2992 RMK A01 T03601043  RH  007%=      5-min Rain = 0
KDC1 201959Z 27012KT 36/M05 A2992 RMK A01 T03631051  RH  007%=      5-min Rain = 0
KDC1 202000Z 27012G17KT 36/M05 A2992 RMK A01 T03641046  RH  007%=      5-min Rain = 0
KDC1 202001Z 27016KT 37/M05 A2992 RMK A01 T03691047  RH  007%=      5-min Rain = 0
KDC1 202002Z 25013G18KT 37/M02 A2992 RMK A01 T03691021  RH  008%=      5-min Rain = 0
KDC1 202003Z 25009G14KT 37/M01 A2992 RMK A01 T03671011  RH  009%=      5-min Rain = 0
KDC1 202004Z 24010G15KT 37/M01 A2992 RMK A01 T03651014  RH  009%=      5-min Rain = 0
KDC1 202005Z 25014KT 37/M01 A2992 RMK A01 T03661012  RH  009%=      5-min Rain = 0
KDC1 202006Z 25014KT 37/M02 A2992 RMK A01 T03651020  RH  009%=      5-min Rain = 0
KDC1 202007Z 27012KT 36/M03 A2992 RMK A01 T03621031  RH  008%=      5-min Rain = 0
KDC1 202008Z 26011KT 36/M05 A2992 RMK A01 T03611045  RH  007%=      5-min Rain = 0
KDC1 202009Z 25013G19KT 36/M03 A2992 RMK A01 T03631032  RH  008%=      5-min Rain = 0
KDC1 202010Z 25011G18KT 36/M02 A2992 RMK A01 T03641021  RH  009%=      5-min Rain = 0
KDC1 202011Z 24012G17KT 36/M02 A2992 RMK A01 T03641018  RH  009%=      5-min Rain = 0
KDC1 202012Z 24010KT 37/M02 A2992 RMK A01 T03661017  RH  009%=      5-min Rain = 0
KDC1 202013Z 24009G14KT 37/M03 A2992 RMK A01 T03671028  RH  008%=      5-min Rain = 0
KDC1 202014Z 24005G12KT 37/M03 A2992 RMK A01 T03661028  RH  008%=      5-min Rain = 0
KDC1 202015Z 28016KT 37/M04 A2991 RMK A01 T03681041  RH  007%=      5-min Rain = 0
KDC1 202016Z 25013G20KT 37/M04 A2992 RMK A01 T03671039  RH  007%=      5-min Rain = 0
KDC1 202017Z 24015G20KT 37/M01 A2992 RMK A01 T03681011  RH  009%=      5-min Rain = 0
KDC1 202018Z 24011KT 36/M03 A2992 RMK A01 T03641028  RH  008%=      5-min Rain = 0
KDC1 202019Z 24013G19KT 36/M03 A2992 RMK A01 T03611030  RH  008%=      5-min Rain = 0
KDC1 202020Z 26018KT 36/M03 A2992 RMK A01 T03591033  RH  008%=      5-min Rain = 0
KDC1 202021Z 25013KT 36/M05 A2992 RMK A01 T03591050  RH  007%=      5-min Rain = 0
KDC1 202022Z 23010KT 36/M04 A2992 RMK A01 T03581039  RH  008%=      5-min Rain = 0
KDC1 202023Z 24009KT 36/M04 A2992 RMK A01 T03591038  RH  008%=      5-min Rain = 0
KDC1 202024Z 24009KT 36/M03 A2992 RMK A01 T03601033  RH  008%=      5-min Rain = 0
KDC1 202025Z 22008KT 36/M03 A2991 RMK A01 T03611034  RH  008%=      5-min Rain = 0
KDC1 202026Z 25010KT 36/M04 A2991 RMK A01 T03611040  RH  008%=      5-min Rain = 0
KDC1 202027Z 25011KT 36/M02 A2991 RMK A01 T03611021  RH  009%=      5-min Rain = 0
KDC1 202028Z 25012KT 36/00 A2991 RMK A01 T03610002  RH  010%=      5-min Rain = 0
KDC1 202029Z 26013KT 36/M01 A2991 RMK A01 T03631009  RH  009%=      5-min Rain = 0
KDC1 202030Z 25012KT 36/M03 A2991 RMK A01 T03621025  RH  008%=      5-min Rain = 0
KDC1 202031Z 26014KT 36/M02 A2991 RMK A01 T03621016  RH  009%=      5-min Rain = 0
KDC1 202032Z 24015G21KT 36/M02 A2991 RMK A01 T03621017  RH  009%=      5-min Rain = 0
KDC1 202033Z 26019KT 36/M02 A2991 RMK A01 T03611021  RH  009%=      5-min Rain = 0
KDC1 202034Z 25020KT 36/M04 A2991 RMK A01 T03591035  RH  008%=      5-min Rain = 0
KDC1 202035Z 25018G23KT 36/M04 A2991 RMK A01 T03581036  RH  008%=      5-min Rain = 0
KDC1 202036Z 24011KT 36/M04 A2991 RMK A01 T03581043  RH  008%=      5-min Rain = 0
KDC1 202037Z 25009KT 36/M04 A2991 RMK A01 T03571038  RH  008%=      5-min Rain = 0
KDC1 202038Z 23010KT 36/M02 A2991 RMK A01 T03591018  RH  009%=      5-min Rain = 0
KDC1 202039Z 24010KT 36/M03 A2991 RMK A01 T03601026  RH  008%=      5-min Rain = 0
KDC1 202040Z 24009KT 36/M03 A2991 RMK A01 T03621028  RH  008%=      5-min Rain = 0
KDC1 202041Z 23007KT 36/M01 A2991 RMK A01 T03611005  RH  010%=      5-min Rain = 0
KDC1 202042Z 20009KT 36/M02 A2991 RMK A01 T03621021  RH  009%=      5-min Rain = 0
KDC1 202043Z 21007KT 36/M03 A2991 RMK A01 T03641033  RH  008%=      5-min Rain = 0
KDC1 202044Z 24007G12KT 36/M03 A2991 RMK A01 T03641033  RH  008%=      5-min Rain = 0
KDC1 202045Z 25013G22KT 36/M03 A2991 RMK A01 T03641030  RH  008%=      5-min Rain = 0
KDC1 202046Z 24016G24KT 36/M02 A2991 RMK A01 T03641023  RH  008%=      5-min Rain = 0
KDC1 202047Z 25017KT 36/M04 A2991 RMK A01 T03621037  RH  008%=      5-min Rain = 0
KDC1 202048Z 25018G25KT 36/M02 A2991 RMK A01 T03611021  RH  009%=      5-min Rain = 0
KDC1 202049Z 25018G24KT 36/M04 A2991 RMK A01 T03601038  RH  008%=      5-min Rain = 0
KDC1 202050Z 25013KT 36/M03 A2991 RMK A01 T03591033  RH  008%=      5-min Rain = 0
KDC1 202051Z 24016G21KT 36/M03 A2991 RMK A01 T03601028  RH  008%=      5-min Rain = 0
KDC1 202052Z 24015G22KT 36/M03 A2991 RMK A01 T03601030  RH  008%=      5-min Rain = 0
KDC1 202053Z 24014KT 36/M04 A2991 RMK A01 T03601038  RH  008%=      5-min Rain = 0
KDC1 202054Z 24012KT 36/M03 A2991 RMK A01 T03591031  RH  008%=      5-min Rain = 0
KDC1 202055Z 22010G16KT 36/M04 A2991 RMK A01 T03601036  RH  008%=      5-min Rain = 0
KDC1 202056Z 22006KT 36/M03 A2991 RMK A01 T03611034  RH  008%=      5-min Rain = 0
KDC1 202057Z 23012G17KT 36/M04 A2991 RMK A01 T03621038  RH  008%=      5-min Rain = 0
KDC1 202058Z 25012KT 36/M03 A2991 RMK A01 T03631031  RH  008%=      5-min Rain = 0
KDC1 202059Z 26015G22KT 36/M03 A2991 RMK A01 T03621025  RH  008%=      5-min Rain = 0
KDC1 202100Z 27020G26KT 36/M04 A299 RMK A01 T03631044  RH  007%=      5-min Rain = 0
KDC1 202101Z 26018G26KT 37/M04 A299 RMK A01 T03661043  RH  007%=      5-min Rain = 0
KDC1 202102Z 26015KT 37/M05 A2991 RMK A01 T03661045  RH  007%=      5-min Rain = 0
KDC1 202103Z 25013KT 36/M05 A2991 RMK A01 T03641045  RH  007%=      5-min Rain = 0
KDC1 202104Z 25014KT 36/M04 A2991 RMK A01 T03611038  RH  008%=      5-min Rain = 0
KDC1 202105Z 26013G18KT 36/M03 A299 RMK A01 T03611027  RH  008%=      5-min Rain = 0
KDC1 202106Z 26011G20KT 36/M04 A2991 RMK A01 T03601042  RH  008%=      5-min Rain = 0
KDC1 202107Z 26018G24KT 36/M04 A299 RMK A01 T03621039  RH  008%=      5-min Rain = 0
KDC1 202108Z 24016KT 36/M03 A299 RMK A01 T03621025  RH  008%=      5-min Rain = 0
KDC1 202109Z 25014KT 36/M02 A299 RMK A01 T03601019  RH  009%=      5-min Rain = 0
KDC1 202110Z 25014KT 36/M02 A299 RMK A01 T03591022  RH  009%=      5-min Rain = 0
KDC1 202111Z 25011KT 36/M02 A299 RMK A01 T03591023  RH  009%=      5-min Rain = 0
KDC1 202112Z 25009KT 36/M03 A299 RMK A01 T03591030  RH  008%=      5-min Rain = 0
KDC1 202113Z 24011KT 36/M01 A299 RMK A01 T03591012  RH  009%=      5-min Rain = 0
KDC1 202114Z 23009KT 36/M03 A299 RMK A01 T03601025  RH  009%=      5-min Rain = 0
KDC1 202115Z 25007KT 36/M03 A299 RMK A01 T03601032  RH  008%=      5-min Rain = 0
KDC1 202116Z 25010KT 36/M02 A299 RMK A01 T03611017  RH  009%=      5-min Rain = 0
KDC1 202117Z 25011KT 36/M03 A299 RMK A01 T03611031  RH  008%=      5-min Rain = 0
KDC1 202118Z 26017G23KT 36/M02 A299 RMK A01 T03611019  RH  009%=      5-min Rain = 0
KDC1 202119Z 25021G26KT 37/M03 A299 RMK A01 T03651029  RH  008%=      5-min Rain = 0
KDC1 202120Z 26020KT 36/M03 A299 RMK A01 T03631027  RH  008%=      5-min Rain = 0
KDC1 202121Z 26021KT 36/M03 A299 RMK A01 T03601029  RH  008%=      5-min Rain = 0
KDC1 202122Z 26018KT 36/M04 A299 RMK A01 T03601043  RH  007%=      5-min Rain = 0
KDC1 202123Z 25018G23KT 36/M04 A299 RMK A01 T03611036  RH  008%=      5-min Rain = 0
KDC1 202124Z 25015KT 36/M03 A299 RMK A01 T03601033  RH  008%=      5-min Rain = 0
KDC1 202125Z 26014G19KT 36/M04 A299 RMK A01 T03601036  RH  008%=      5-min Rain = 0
KDC1 202126Z 25015KT 36/M04 A299 RMK A01 T03611035  RH  008%=      5-min Rain = 0
KDC1 202127Z 25014KT 36/M03 A299 RMK A01 T03611033  RH  008%=      5-min Rain = 0
KDC1 202128Z 24012G19KT 36/M02 A299 RMK A01 T03611016  RH  009%=      5-min Rain = 0
KDC1 202129Z 24012G17KT 36/M04 A299 RMK A01 T03621039  RH  008%=      5-min Rain = 0
KDC1 202130Z 23007KT 36/M04 A299 RMK A01 T03601040  RH  008%=      5-min Rain = 0
KDC1 202131Z 24013G23KT 36/M04 A2989 RMK A01 T03601040  RH  008%=      5-min Rain = 0
KDC1 202132Z 25016KT 36/M02 A2989 RMK A01 T03601024  RH  009%=      5-min Rain = 0
KDC1 202133Z 26014KT 36/M02 A2989 RMK A01 T03601024  RH  009%=      5-min Rain = 0
KDC1 202134Z 25013G20KT 36/M03 A2989 RMK A01 T03601030  RH  008%=      5-min Rain = 0
KDC1 202135Z 24016KT 36/M02 A2989 RMK A01 T03621015  RH  009%=      5-min Rain = 0
KDC1 202136Z 22011G16KT 36/M02 A2989 RMK A01 T03611015  RH  009%=      5-min Rain = 0
KDC1 202137Z 23009G15KT 36/M04 A2989 RMK A01 T03621037  RH  008%=      5-min Rain = 0
KDC1 202138Z 24013KT 36/M04 A2989 RMK A01 T03641035  RH  008%=      5-min Rain = 0
KDC1 202139Z 25010KT 36/M03 A2989 RMK A01 T03631028  RH  008%=      5-min Rain = 0
KDC1 202140Z 25012KT 36/M01 A2989 RMK A01 T03621009  RH  009%=      5-min Rain = 0
KDC1 202141Z 25019G24KT 36/M01 A2989 RMK A01 T03621008  RH  010%=      5-min Rain = 0
KDC1 202142Z 25020G26KT 36/M03 A2989 RMK A01 T03611032  RH  008%=      5-min Rain = 0
KDC1 202143Z 25014G19KT 36/M03 A2989 RMK A01 T03581032  RH  008%=      5-min Rain = 0
KDC1 202144Z 24012KT 36/M02 A2989 RMK A01 T03571022  RH  009%=      5-min Rain = 0
KDC1 202145Z 26016KT 36/M02 A2989 RMK A01 T03581024  RH  009%=      5-min Rain = 0
KDC1 202146Z 27014KT 36/M04 A2989 RMK A01 T03591037  RH  008%=      5-min Rain = 0
KDC1 202147Z 27014KT 36/M04 A2989 RMK A01 T03631035  RH  008%=      5-min Rain = 0
KDC1 202148Z 27015KT 36/M05 A2989 RMK A01 T03631051  RH  007%=      5-min Rain = 0
KDC1 202149Z 27018KT 37/M05 A2989 RMK A01 T03661047  RH  007%=      5-min Rain = 0
KDC1 202150Z 27018KT 37/M05 A2989 RMK A01 T03671052  RH  007%=      5-min Rain = 0
KDC1 202151Z 26015KT 37/M04 A2989 RMK A01 T03671044  RH  007%=      5-min Rain = 0
KDC1 202152Z 26013KT 37/M05 A2989 RMK A01 T03651052  RH  007%=      5-min Rain = 0
KDC1 202153Z 26016KT 36/M03 A2989 RMK A01 T03621031  RH  008%=      5-min Rain = 0
KDC1 202154Z 27019G25KT 36/M04 A2989 RMK A01 T03621036  RH  008%=      5-min Rain = 0
KDC1 202155Z 26019KT 36/M04 A2989 RMK A01 T03641041  RH  007%=      5-min Rain = 0
KDC1 202156Z 27014KT 37/M04 A2989 RMK A01 T03651039  RH  008%=      5-min Rain = 0
KDC1 202157Z 27019G24KT 37/M04 A2989 RMK A01 T03681043  RH  007%=      5-min Rain = 0
KDC1 202158Z 26017KT 37/M05 A2989 RMK A01 T03691045  RH  007%=      5-min Rain = 0
KDC1 202159Z 26015KT 37/M04 A2989 RMK A01 T03671036  RH  008%=      5-min Rain = 0
KDC1 202200Z 25013KT 36/M03 A2989 RMK A01 T03641033  RH  008%=      5-min Rain = 0
KDC1 202201Z 25011KT 36/M03 A2989 RMK A01 T03611026  RH  008%=      5-min Rain = 0
KDC1 202202Z 25011KT 36/M03 A2989 RMK A01 T03611025  RH  009%=      5-min Rain = 0
KDC1 202203Z 26013G19KT 36/M03 A2989 RMK A01 T03611034  RH  008%=      5-min Rain = 0
KDC1 202204Z 26015KT 36/M04 A2989 RMK A01 T03601039  RH  008%=      5-min Rain = 0
KDC1 202205Z 26016KT 36/M02 A2989 RMK A01 T03601024  RH  009%=      5-min Rain = 0
KDC1 202206Z 26015KT 36/M04 A2989 RMK A01 T03611037  RH  008%=      5-min Rain = 0
KDC1 202207Z 26011KT 36/M05 A2989 RMK A01 T03631045  RH  007%=      5-min Rain = 0
KDC1 202208Z 25011KT 37/M03 A2989 RMK A01 T03661034  RH  008%=      5-min Rain = 0
KDC1 202209Z 24011G18KT 37/M02 A2989 RMK A01 T03651024  RH  008%=      5-min Rain = 0
KDC1 202210Z 24016KT 36/M02 A2989 RMK A01 T03631015  RH  009%=      5-min Rain = 0
KDC1 202211Z 24015KT 36/M03 A2989 RMK A01 T03601034  RH  008%=      5-min Rain = 0
KDC1 202212Z 24012G18KT 36/M03 A2989 RMK A01 T03591027  RH  008%=      5-min Rain = 0
KDC1 202213Z 23008G13KT 36/M03 A2989 RMK A01 T03581026  RH  009%=      5-min Rain = 0
KDC1 202214Z 24007G12KT 36/M03 A2989 RMK A01 T03591025  RH  009%=      5-min Rain = 0
KDC1 202215Z 24007G12KT 36/M03 A2989 RMK A01 T03631031  RH  008%=      5-min Rain = 0
KDC1 202216Z 24014G19KT 36/M04 A2988 RMK A01 T03641038  RH  008%=      5-min Rain = 0
KDC1 202217Z 24012KT 36/M04 A2989 RMK A01 T03641039  RH  008%=      5-min Rain = 0
KDC1 202218Z 25013KT 36/M02 A2989 RMK A01 T03641023  RH  008%=      5-min Rain = 0
KDC1 202219Z 25017KT 36/M02 A2988 RMK A01 T03631024  RH  008%=      5-min Rain = 0
KDC1 202220Z 26016KT 36/M04 A2988 RMK A01 T03611038  RH  008%=      5-min Rain = 0
KDC1 202221Z 25012KT 36/M05 A2988 RMK A01 T03611047  RH  007%=      5-min Rain = 0
KDC1 202222Z 26011KT 36/M02 A2988 RMK A01 T03611024  RH  009%=      5-min Rain = 0
KDC1 202223Z 26015G20KT 36/M03 A2988 RMK A01 T03631029  RH  008%=      5-min Rain = 0
KDC1 202224Z 26019KT 36/M05 A2988 RMK A01 T03641051  RH  007%=      5-min Rain = 0
KDC1 202225Z 27020KT 36/M06 A2988 RMK A01 T03641056  RH  007%=      5-min Rain = 0
KDC1 202226Z 27017KT 37/M06 A2988 RMK A01 T03651058  RH  007%=      5-min Rain = 0
KDC1 202227Z 27017KT 37/M06 A2988 RMK A01 T03671057  RH  006%=      5-min Rain = 0
KDC1 202228Z 28018KT 37/M06 A2988 RMK A01 T03661057  RH  006%=      5-min Rain = 0
KDC1 202229Z 27018KT 37/M06 A2988 RMK A01 T03661058  RH  006%=      5-min Rain = 0
KDC1 202230Z 26015KT 37/M05 A2988 RMK A01 T03651054  RH  007%=      5-min Rain = 0
KDC1 202231Z 25013KT 36/M05 A2988 RMK A01 T03641047  RH  007%=      5-min Rain = 0
KDC1 202232Z 26014KT 36/M03 A2988 RMK A01 T03621033  RH  008%=      5-min Rain = 0
KDC1 202233Z 26016KT 36/M04 A2988 RMK A01 T03611037  RH  008%=      5-min Rain = 0
KDC1 202234Z 27016KT 36/M06 A2988 RMK A01 T03621057  RH  007%=      5-min Rain = 0
KDC1 202235Z 26013KT 36/M06 A2988 RMK A01 T03631057  RH  007%=      5-min Rain = 0
KDC1 202236Z 25018KT 36/M04 A2988 RMK A01 T03641043  RH  007%=      5-min Rain = 0
KDC1 202237Z 25019KT 36/M04 A2988 RMK A01 T03621041  RH  008%=      5-min Rain = 0
KDC1 202238Z 25015KT 36/M04 A2988 RMK A01 T03601038  RH  008%=      5-min Rain = 0
KDC1 202239Z 24012KT 36/M02 A2988 RMK A01 T03581021  RH  009%=      5-min Rain = 0
KDC1 202240Z 25013G19KT 36/M03 A2988 RMK A01 T03571026  RH  009%=      5-min Rain = 0
KDC1 202241Z 26015KT 36/M01 A2988 RMK A01 T03571013  RH  010%=      5-min Rain = 0
KDC1 202242Z 26014KT 36/M02 A2988 RMK A01 T03591021  RH  009%=      5-min Rain = 0
KDC1 202243Z 26013KT 36/M03 A2988 RMK A01 T03611030  RH  008%=      5-min Rain = 0
KDC1 202244Z 26012KT 36/M03 A2988 RMK A01 T03601034  RH  008%=      5-min Rain = 0
KDC1 202245Z 26011KT 36/M05 A2988 RMK A01 T03581045  RH  007%=      5-min Rain = 0
KDC1 202246Z 25011KT 36/M03 A2988 RMK A01 T03581032  RH  008%=      5-min Rain = 0
KDC1 202247Z 25009KT 36/M02 A2988 RMK A01 T03581017  RH  009%=      5-min Rain = 0
KDC1 202248Z 25010G17KT 36/M01 A2988 RMK A01 T03571010  RH  010%=      5-min Rain = 0
KDC1 202249Z 26012KT 36/M01 A2988 RMK A01 T03581006  RH  010%=      5-min Rain = 0
KDC1 202250Z 27014KT 36/M04 A2988 RMK A01 T03591039  RH  008%=      5-min Rain = 0
KDC1 202251Z 26016KT 36/M06 A2987 RMK A01 T03611057  RH  007%=      5-min Rain = 0
KDC1 202252Z 25014KT 36/M03 A2988 RMK A01 T03621033  RH  008%=      5-min Rain = 0
KDC1 202253Z 26013KT 36/M02 A2988 RMK A01 T03601019  RH  009%=      5-min Rain = 0
KDC1 202254Z 26012KT 36/M01 A2988 RMK A01 T03591010  RH  010%=      5-min Rain = 0
KDC1 202255Z 26013KT 36/M02 A2988 RMK A01 T03571018  RH  009%=      5-min Rain = 0
KDC1 202256Z 26015KT 36/M02 A2987 RMK A01 T03561016  RH  009%=      5-min Rain = 0
KDC1 202257Z 26018KT 36/M04 A2987 RMK A01 T03601042  RH  008%=      5-min Rain = 0
KDC1 202258Z 25014KT 36/M03 A2988 RMK A01 T03621029  RH  008%=      5-min Rain = 0
KDC1 202259Z 25014KT 36/M03 A2988 RMK A01 T03611034  RH  008%=      5-min Rain = 0
KDC1 202300Z 25011KT 36/M03 A2988 RMK A01 T03601028  RH  008%=      5-min Rain = 0
KDC1 202301Z 25010KT 36/M03 A2987 RMK A01 T03591027  RH  009%=      5-min Rain = 0
KDC1 202302Z 26013KT 36/M02 A2987 RMK A01 T03581017  RH  009%=      5-min Rain = 0
KDC1 202303Z 26013KT 36/M03 A2987 RMK A01 T03591025  RH  009%=      5-min Rain = 0
KDC1 202304Z 27015KT 36/M05 A2987 RMK A01 T03621046  RH  007%=      5-min Rain = 0
KDC1 202305Z 27016KT 37/M05 A2987 RMK A01 T03651048  RH  007%=      5-min Rain = 0
KDC1 202306Z 26015G20KT 37/M04 A2987 RMK A01 T03661042  RH  007%=      5-min Rain = 0
KDC1 202307Z 26016KT 37/M03 A2987 RMK A01 T03651028  RH  008%=      5-min Rain = 0
KDC1 202308Z 25015KT 36/M04 A2987 RMK A01 T03611035  RH  008%=      5-min Rain = 0
KDC1 202309Z 25015KT 36/M03 A2987 RMK A01 T03591032  RH  008%=      5-min Rain = 0
KDC1 202310Z 26014KT 36/M03 A2987 RMK A01 T03581031  RH  008%=      5-min Rain = 0
KDC1 202311Z 26013KT 36/M03 A2987 RMK A01 T03571031  RH  008%=      5-min Rain = 0
KDC1 202312Z 26012KT 36/M03 A2987 RMK A01 T03561031  RH  008%=      5-min Rain = 0
KDC1 202313Z 25010KT 36/M03 A2987 RMK A01 T03571031  RH  008%=      5-min Rain = 0
KDC1 202314Z 25009KT 36/M04 A2987 RMK A01 T03581043  RH  008%=      5-min Rain = 0
KDC1 202315Z 26012KT 36/M04 A2987 RMK A01 T03591040  RH  008%=      5-min Rain = 0
KDC1 202316Z 24009KT 36/M02 A2987 RMK A01 T03621018  RH  009%=      5-min Rain = 0
KDC1 202317Z 24010KT 36/M01 A2987 RMK A01 T03611005  RH  010%=      5-min Rain = 0
KDC1 202318Z 24007KT 36/M01 A2987 RMK A01 T03601006  RH  010%=      5-min Rain = 0
KDC1 202319Z 24014KT 36/M02 A2987 RMK A01 T03591020  RH  009%=      5-min Rain = 0
KDC1 202320Z 25010KT 36/M03 A2987 RMK A01 T03581025  RH  009%=      5-min Rain = 0
KDC1 202321Z 24011KT 36/M02 A2987 RMK A01 T03581019  RH  009%=      5-min Rain = 0
KDC1 202322Z 24012KT 36/M03 A2986 RMK A01 T03581026  RH  009%=      5-min Rain = 0
KDC1 202323Z 25010KT 36/M03 A2987 RMK A01 T03581026  RH  009%=      5-min Rain = 0
KDC1 202324Z 25009KT 36/M01 A2987 RMK A01 T03571007  RH  010%=      5-min Rain = 0
KDC1 202325Z 25010KT 36/M00 A2987 RMK A01 T03561003  RH  010%=      5-min Rain = 0
KDC1 202326Z 26009KT 36/M01 A2986 RMK A01 T03561006  RH  010%=      5-min Rain = 0
KDC1 202327Z 26011KT 36/M02 A2986 RMK A01 T03571015  RH  009%=      5-min Rain = 0
KDC1 202328Z 25013KT 36/M02 A2986 RMK A01 T03601024  RH  009%=      5-min Rain = 0
KDC1 202329Z 25015KT 36/M02 A2986 RMK A01 T03601024  RH  009%=      5-min Rain = 0
KDC1 202330Z 25011KT 36/M02 A2986 RMK A01 T03561021  RH  009%=      5-min Rain = 0
KDC1 202331Z 25012KT 36/M02 A2986 RMK A01 T03551024  RH  009%=      5-min Rain = 0
KDC1 202332Z 25012KT 35/M03 A2986 RMK A01 T03541027  RH  009%=      5-min Rain = 0
KDC1 202333Z 26011KT 35/M03 A2986 RMK A01 T03541033  RH  008%=      5-min Rain = 0
KDC1 202334Z 25009KT 36/M03 A2986 RMK A01 T03551031  RH  008%=      5-min Rain = 0
KDC1 202335Z 25009KT 36/M03 A2986 RMK A01 T03561030  RH  008%=      5-min Rain = 0
KDC1 202336Z 26011KT 36/M03 A2986 RMK A01 T03561029  RH  009%=      5-min Rain = 0
KDC1 202337Z 26011KT 36/M03 A2986 RMK A01 T03561027  RH  009%=      5-min Rain = 0
KDC1 202338Z 25011KT 36/M03 A2986 RMK A01 T03571034  RH  008%=      5-min Rain = 0
KDC1 202339Z 25010KT 36/M02 A2986 RMK A01 T03581016  RH  009%=      5-min Rain = 0
KDC1 202340Z 25014KT 36/M01 A2986 RMK A01 T03581009  RH  010%=      5-min Rain = 0
KDC1 202341Z 25015KT 36/M02 A2986 RMK A01 T03551023  RH  009%=      5-min Rain = 0
KDC1 202342Z 25015KT 35/M02 A2986 RMK A01 T03531022  RH  009%=      5-min Rain = 0
KDC1 202343Z 25017KT 35/M03 A2986 RMK A01 T03531027  RH  009%=      5-min Rain = 0
KDC1 202344Z 25014KT 35/M04 A2986 RMK A01 T03521037  RH  008%=      5-min Rain = 0
KDC1 202345Z 26017KT 35/M04 A2986 RMK A01 T03531038  RH  008%=      5-min Rain = 0
KDC1 202346Z 26014KT 35/M04 A2986 RMK A01 T03541042  RH  008%=      5-min Rain = 0
KDC1 202347Z 26014KT 36/M04 A2986 RMK A01 T03561044  RH  008%=      5-min Rain = 0
KDC1 202348Z 26016KT 36/M05 A2986 RMK A01 T03571047  RH  007%=      5-min Rain = 0
KDC1 202349Z 26015KT 36/M05 A2986 RMK A01 T03571045  RH  007%=      5-min Rain = 0
KDC1 202350Z 25014KT 36/M04 A2986 RMK A01 T03561041  RH  008%=      5-min Rain = 0
KDC1 202351Z 26016KT 36/M05 A2986 RMK A01 T03551046  RH  008%=      5-min Rain = 0
KDC1 202352Z 26014KT 36/M05 A2986 RMK A01 T03551052  RH  007%=      5-min Rain = 0
KDC1 202353Z 26016KT 36/M05 A2986 RMK A01 T03561048  RH  007%=      5-min Rain = 0
KDC1 202354Z 26014KT 36/M04 A2986 RMK A01 T03561042  RH  008%=      5-min Rain = 0
KDC1 202355Z 26013KT 36/M04 A2986 RMK A01 T03561043  RH  008%=      5-min Rain = 0
KDC1 202356Z 24012G18KT 36/M04 A2986 RMK A01 T03551044  RH  008%=      5-min Rain = 0
KDC1 202357Z 24014G19KT 35/M03 A2986 RMK A01 T03541032  RH  008%=      5-min Rain = 0
KDC1 202358Z 25013KT 35/M03 A2986 RMK A01 T03531026  RH  009%=      5-min Rain = 0
KDC1 202359Z 26019KT 35/M03 A2986 RMK A01 T03521030  RH  009%=      5-min Rain = 0
KDC1 210000Z 26016KT 35/M05 A2986 RMK A01 T03541052  RH  007%=      5-min Rain = 0
KDC1 210001Z 26017KT 36/M04 A2986 RMK A01 T03561044  RH  008%=      5-min Rain = 0
KDC1 210002Z 26016KT 36/M04 A2986 RMK A01 T03561043  RH  008%=      5-min Rain = 0
KDC1 210003Z 27018KT 36/M05 A2986 RMK A01 T03551049  RH  007%=      5-min Rain = 0
KDC1 210004Z 27015KT 36/M06 A2986 RMK A01 T03561058  RH  007%=      5-min Rain = 0
KDC1 210005Z 26011KT 36/M05 A2986 RMK A01 T03581050  RH  007%=      5-min Rain = 0
KDC1 210006Z 27012KT 36/M04 A2985 RMK A01 T03591044  RH  007%=      5-min Rain = 0
KDC1 210007Z 27010KT 36/M05 A2985 RMK A01 T03581049  RH  007%=      5-min Rain = 0
KDC1 210008Z 26011KT 36/M05 A2985 RMK A01 T03591046  RH  007%=      5-min Rain = 0
KDC1 210009Z 27013KT 36/M05 A2985 RMK A01 T03591045  RH  007%=      5-min Rain = 0
KDC1 210010Z 26014KT 36/M03 A2985 RMK A01 T03601034  RH  008%=      5-min Rain = 0
KDC1 210011Z 25011KT 36/M02 A2985 RMK A01 T03571020  RH  009%=      5-min Rain = 0
KDC1 210012Z 26011KT 35/M01 A2985 RMK A01 T03531009  RH  010%=      5-min Rain = 0
KDC1 210013Z 25010KT 35/M01 A2985 RMK A01 T03511006  RH  010%=      5-min Rain = 0
KDC1 210014Z 27011KT 35/M03 A2985 RMK A01 T03501025  RH  009%=      5-min Rain = 0
KDC1 210015Z 27015G21KT 35/M04 A2985 RMK A01 T03541042  RH  008%=      5-min Rain = 0
KDC1 210016Z 26013KT 36/M05 A2985 RMK A01 T03571045  RH  007%=      5-min Rain = 0
KDC1 210017Z 25011KT 36/M03 A2985 RMK A01 T03571028  RH  009%=      5-min Rain = 0
KDC1 210018Z 25011KT 36/M03 A2985 RMK A01 T03551026  RH  009%=      5-min Rain = 0
KDC1 210019Z 25013KT 35/M03 A2985 RMK A01 T03521032  RH  009%=      5-min Rain = 0
KDC1 210020Z 27016KT 35/M04 A2985 RMK A01 T03511039  RH  008%=      5-min Rain = 0
KDC1 210021Z 27018KT 35/M05 A2985 RMK A01 T03531049  RH  007%=      5-min Rain = 0
KDC1 210022Z 26020KT 36/M05 A2985 RMK A01 T03551053  RH  007%=      5-min Rain = 0
KDC1 210023Z 27018KT 36/M05 A2985 RMK A01 T03551051  RH  007%=      5-min Rain = 0
KDC1 210024Z 27017KT 36/M06 A2985 RMK A01 T03551058  RH  007%=      5-min Rain = 0
KDC1 210025Z 27016KT 36/M06 A2985 RMK A01 T03551061  RH  007%=      5-min Rain = 0
KDC1 210026Z 27014KT 36/M06 A2985 RMK A01 T03561060  RH  007%=      5-min Rain = 0
KDC1 210027Z 27014KT 36/M06 A2985 RMK A01 T03561061  RH  007%=      5-min Rain = 0
KDC1 210028Z 28013KT 36/M06 A2985 RMK A01 T03561058  RH  007%=      5-min Rain = 0
KDC1 210029Z 28015KT 36/M05 A2985 RMK A01 T03571053  RH  007%=      5-min Rain = 0
KDC1 210030Z 28014KT 36/M06 A2985 RMK A01 T03561058  RH  007%=      5-min Rain = 0
KDC1 210031Z 27011KT 36/M06 A2985 RMK A01 T03561055  RH  007%=      5-min Rain = 0
KDC1 210032Z 26009KT 36/M04 A2985 RMK A01 T03551040  RH  008%=      5-min Rain = 0
KDC1 210033Z 26008KT 35/M04 A2985 RMK A01 T03541037  RH  008%=      5-min Rain = 0
KDC1 210034Z 27008KT 35/M04 A2985 RMK A01 T03531035  RH  008%=      5-min Rain = 0
KDC1 210035Z 26007KT 35/M03 A2985 RMK A01 T03521032  RH  008%=      5-min Rain = 0
KDC1 210036Z 26009KT 35/M02 A2985 RMK A01 T03521020  RH  009%=      5-min Rain = 0
KDC1 210037Z 27010KT 35/M03 A2985 RMK A01 T03521033  RH  008%=      5-min Rain = 0
KDC1 210038Z 28013KT 35/M05 A2985 RMK A01 T03521046  RH  008%=      5-min Rain = 0
KDC1 210039Z 28015KT 35/M05 A2985 RMK A01 T03531051  RH  007%=      5-min Rain = 0
KDC1 210040Z 28016KT 35/M05 A2985 RMK A01 T03531054  RH  007%=      5-min Rain = 0
KDC1 210041Z 27018KT 35/M06 A2985 RMK A01 T03531057  RH  007%=      5-min Rain = 0
KDC1 210042Z 25015KT 35/M05 A2985 RMK A01 T03531050  RH  007%=      5-min Rain = 0
KDC1 210043Z 25012KT 35/M03 A2985 RMK A01 T03521026  RH  009%=      5-min Rain = 0
KDC1 210044Z 25008KT 35/M02 A2985 RMK A01 T03481023  RH  009%=      5-min Rain = 0
KDC1 210045Z 25012KT 35/M01 A2985 RMK A01 T03451014  RH  010%=      5-min Rain = 0
KDC1 210046Z 26012G17KT 34/M02 A2985 RMK A01 T03431015  RH  010%=      5-min Rain = 0
KDC1 210047Z 26015KT 34/M03 A2985 RMK A01 T03421030  RH  009%=      5-min Rain = 0
KDC1 210048Z 26014KT 34/M03 A2985 RMK A01 T03431028  RH  009%=      5-min Rain = 0
KDC1 210049Z 26016KT 34/M03 A2985 RMK A01 T03441031  RH  009%=      5-min Rain = 0
KDC1 210050Z 26014G19KT 35/M04 A2985 RMK A01 T03451038  RH  008%=      5-min Rain = 0
KDC1 210051Z 26013KT 35/M03 A2985 RMK A01 T03461032  RH  009%=      5-min Rain = 0
KDC1 210052Z 26012KT 35/M03 A2985 RMK A01 T03451028  RH  009%=      5-min Rain = 0
KDC1 210053Z 26012KT 34/M03 A2985 RMK A01 T03441025  RH  009%=      5-min Rain = 0
KDC1 210054Z 26012KT 34/M02 A2985 RMK A01 T03421023  RH  010%=      5-min Rain = 0
KDC1 210055Z 26011KT 34/M02 A2985 RMK A01 T03411022  RH  010%=      5-min Rain = 0
KDC1 210056Z 25009KT 34/M01 A2985 RMK A01 T03401014  RH  010%=      5-min Rain = 0
KDC1 210057Z 25007KT 34/M00 A2985 RMK A01 T03371004  RH  011%=      5-min Rain = 0
KDC1 210058Z 26009KT 33/01 A2985 RMK A01 T03340005  RH  012%=      5-min Rain = 0
KDC1 210059Z 25009KT 33/01 A2985 RMK A01 T03310009  RH  013%=      5-min Rain = 0
KDC1 210100Z 25009KT 33/M01 A2985 RMK A01 T03301005  RH  012%=      5-min Rain = 0
KDC1 210101Z 25008KT 33/M01 A2985 RMK A01 T03311008  RH  011%=      5-min Rain = 0
KDC1 210102Z 25008KT 33/M01 A2985 RMK A01 T03321010  RH  011%=      5-min Rain = 0
KDC1 210103Z 25008KT 33/M01 A2985 RMK A01 T03331009  RH  011%=      5-min Rain = 0
KDC1 210104Z 25008KT 33/M00 A2985 RMK A01 T03341002  RH  012%=      5-min Rain = 0
KDC1 210105Z 25010KT 33/M00 A2985 RMK A01 T03321001  RH  012%=      5-min Rain = 0
KDC1 210106Z 26011KT 33/M02 A2985 RMK A01 T03331020  RH  010%=      5-min Rain = 0
KDC1 210107Z 26012KT 34/M03 A2985 RMK A01 T03351025  RH  010%=      5-min Rain = 0
KDC1 210108Z 26011KT 34/M03 A2985 RMK A01 T03371025  RH  010%=      5-min Rain = 0
KDC1 210109Z 26012KT 34/M03 A2985 RMK A01 T03371025  RH  010%=      5-min Rain = 0
KDC1 210110Z 25012KT 34/M03 A2985 RMK A01 T03371031  RH  009%=      5-min Rain = 0
KDC1 210111Z 26010KT 34/M03 A2985 RMK A01 T03381034  RH  009%=      5-min Rain = 0
KDC1 210112Z 25010KT 34/M02 A2985 RMK A01 T03391024  RH  010%=      5-min Rain = 0
KDC1 210113Z 26010KT 34/M03 A2985 RMK A01 T03381027  RH  010%=      5-min Rain = 0
KDC1 210114Z 25009KT 34/M02 A2985 RMK A01 T03371022  RH  010%=      5-min Rain = 0
KDC1 210115Z 25010KT 34/M02 A2985 RMK A01 T03361023  RH  010%=      5-min Rain = 0
KDC1 210116Z 25012G18KT 34/M01 A2985 RMK A01 T03351014  RH  011%=      5-min Rain = 0
KDC1 210117Z 26014KT 34/M03 A2985 RMK A01 T03351034  RH  009%=      5-min Rain = 0
KDC1 210118Z 26014KT 34/M04 A2985 RMK A01 T03361036  RH  009%=      5-min Rain = 0
KDC1 210119Z 26011KT 34/M03 A2986 RMK A01 T03371034  RH  009%=      5-min Rain = 0
KDC1 210120Z 25012KT 34/M03 A2986 RMK A01 T03371029  RH  009%=      5-min Rain = 0
KDC1 210121Z 25011KT 34/M03 A2985 RMK A01 T03361028  RH  010%=      5-min Rain = 0
KDC1 210122Z 26011KT 34/M03 A2985 RMK A01 T03351029  RH  010%=      5-min Rain = 0
KDC1 210123Z 26011KT 34/M03 A2986 RMK A01 T03351027  RH  010%=      5-min Rain = 0
KDC1 210124Z 25009KT 33/M03 A2986 RMK A01 T03341029  RH  010%=      5-min Rain = 0
KDC1 210125Z 25010KT 33/M03 A2986 RMK A01 T03341025  RH  010%=      5-min Rain = 0
KDC1 210126Z 25009KT 33/M03 A2986 RMK A01 T03331029  RH  010%=      5-min Rain = 0
KDC1 210127Z 26009KT 33/M03 A2986 RMK A01 T03331026  RH  010%=      5-min Rain = 0
KDC1 210128Z 25007KT 33/M02 A2986 RMK A01 T03321021  RH  010%=      5-min Rain = 0
KDC1 210129Z 25007KT 33/M01 A2986 RMK A01 T03301008  RH  011%=      5-min Rain = 0
KDC1 210130Z 25009KT 33/M00 A2986 RMK A01 T03261001  RH  012%=      5-min Rain = 0
KDC1 210131Z 25010KT 32/M00 A2986 RMK A01 T03221001  RH  013%=      5-min Rain = 0
KDC1 210132Z 25010KT 32/M01 A2986 RMK A01 T03211010  RH  012%=      5-min Rain = 0
KDC1 210133Z 25009KT 32/M02 A2986 RMK A01 T03211017  RH  011%=      5-min Rain = 0
KDC1 210134Z 24009KT 32/M02 A2986 RMK A01 T03221019  RH  011%=      5-min Rain = 0
KDC1 210135Z 24009KT 32/M02 A2986 RMK A01 T03231016  RH  011%=      5-min Rain = 0
KDC1 210136Z 24010KT 32/M02 A2986 RMK A01 T03221015  RH  011%=      5-min Rain = 0
KDC1 210137Z 24008KT 32/M01 A2986 RMK A01 T03211012  RH  012%=      5-min Rain = 0
KDC1 210138Z 25009KT 32/M01 A2986 RMK A01 T03201011  RH  012%=      5-min Rain = 0
KDC1 210139Z 25010KT 32/M01 A2986 RMK A01 T03191010  RH  012%=      5-min Rain = 0
KDC1 210140Z 24009KT 32/M01 A2986 RMK A01 T03191010  RH  012%=      5-min Rain = 0
KDC1 210141Z 24009KT 32/M01 A2986 RMK A01 T03191009  RH  012%=      5-min Rain = 0
KDC1 210142Z 25009KT 32/M01 A2986 RMK A01 T03181012  RH  012%=      5-min Rain = 0
KDC1 210143Z 25009KT 32/M01 A2986 RMK A01 T03181013  RH  012%=      5-min Rain = 0
KDC1 210144Z 25007KT 32/M01 A2986 RMK A01 T03181010  RH  012%=      5-min Rain = 0
KDC1 210145Z 25008KT 32/M01 A2986 RMK A01 T03171008  RH  012%=      5-min Rain = 0
KDC1 210146Z 25008KT 32/M01 A2986 RMK A01 T03161009  RH  012%=      5-min Rain = 0
KDC1 210147Z 25009KT 32/M01 A2986 RMK A01 T03151010  RH  012%=      5-min Rain = 0
KDC1 210148Z 25009KT 31/M02 A2986 RMK A01 T03141016  RH  012%=      5-min Rain = 0
KDC1 210149Z 25007KT 32/M02 A2986 RMK A01 T03151024  RH  011%=      5-min Rain = 0
KDC1 210150Z 25008KT 32/M02 A2986 RMK A01 T03161015  RH  012%=      5-min Rain = 0
KDC1 210151Z 24008KT 31/M01 A2986 RMK A01 T03141012  RH  012%=      5-min Rain = 0
KDC1 210152Z 24009KT 31/M01 A2986 RMK A01 T03111008  RH  013%=      5-min Rain = 0
KDC1 210153Z 25008KT 31/M01 A2986 RMK A01 T03091007  RH  013%=      5-min Rain = 0
KDC1 210154Z 25009KT 31/M01 A2986 RMK A01 T03081008  RH  013%=      5-min Rain = 0
KDC1 210155Z 24010KT 31/M01 A2986 RMK A01 T03071011  RH  013%=      5-min Rain = 0
KDC1 210156Z 25009KT 31/M02 A2986 RMK A01 T03081020  RH  012%=      5-min Rain = 0
KDC1 210157Z 24009KT 31/M02 A2986 RMK A01 T03091017  RH  012%=      5-min Rain = 0
KDC1 210158Z 24008KT 31/M02 A2986 RMK A01 T03091017  RH  012%=      5-min Rain = 0
KDC1 210159Z 25008KT 31/M01 A2986 RMK A01 T03091011  RH  013%=      5-min Rain = 0
KDC1 210200Z 25007KT 31/M01 A2986 RMK A01 T03071012  RH  013%=      5-min Rain = 0
KDC1 210201Z 25008KT 31/M01 A2986 RMK A01 T03061013  RH  013%=      5-min Rain = 0
KDC1 210202Z 24009KT 31/M01 A2986 RMK A01 T03061010  RH  013%=      5-min Rain = 0
KDC1 210203Z 25007KT 31/M01 A2986 RMK A01 T03051007  RH  013%=      5-min Rain = 0
KDC1 210204Z 25008KT 30/M00 A2986 RMK A01 T03041004  RH  014%=      5-min Rain = 0
KDC1 210205Z 25008KT 30/M01 A2986 RMK A01 T03021011  RH  013%=      5-min Rain = 0
KDC1 210206Z 24007KT 30/M01 A2986 RMK A01 T03021012  RH  013%=      5-min Rain = 0
KDC1 210207Z 24007KT 30/M01 A2986 RMK A01 T03011006  RH  014%=      5-min Rain = 0
KDC1 210208Z 25008KT 30/M01 A2986 RMK A01 T02991005  RH  014%=      5-min Rain = 0
KDC1 210209Z 25009KT 30/M01 A2986 RMK A01 T02981007  RH  014%=      5-min Rain = 0
KDC1 210210Z 25009KT 30/M01 A2986 RMK A01 T02981006  RH  014%=      5-min Rain = 0
KDC1 210211Z 25008KT 30/M00 A2986 RMK A01 T02981004  RH  014%=      5-min Rain = 0
KDC1 210212Z 24008KT 30/M00 A2986 RMK A01 T02961002  RH  015%=      5-min Rain = 0
KDC1 210213Z 25008KT 30/M01 A2986 RMK A01 T02951005  RH  014%=      5-min Rain = 0
KDC1 210214Z 25008KT 29/M01 A2986 RMK A01 T02941009  RH  014%=      5-min Rain = 0
KDC1 210215Z 25008KT 29/M01 A2986 RMK A01 T02941012  RH  014%=      5-min Rain = 0
KDC1 210216Z 25008KT 29/M01 A2986 RMK A01 T02941013  RH  014%=      5-min Rain = 0
KDC1 210217Z 25008KT 29/M02 A2986 RMK A01 T02941015  RH  013%=      5-min Rain = 0
KDC1 210218Z 25008KT 29/M02 A2986 RMK A01 T02941017  RH  013%=      5-min Rain = 0
KDC1 210219Z 25008KT 30/M02 A2986 RMK A01 T02951020  RH  013%=      5-min Rain = 0
KDC1 210220Z 25009KT 30/M02 A2986 RMK A01 T02961017  RH  013%=      5-min Rain = 0
KDC1 210221Z 25009KT 30/M02 A2986 RMK A01 T02961021  RH  013%=      5-min Rain = 0
KDC1 210222Z 25009KT 30/M02 A2986 RMK A01 T02961024  RH  012%=      5-min Rain = 0
KDC1 210223Z 24006KT 30/M02 A2986 RMK A01 T02961019  RH  013%=      5-min Rain = 0
KDC1 210224Z 24006KT 30/M02 A2986 RMK A01 T02951020  RH  013%=      5-min Rain = 0
KDC1 210225Z 24006KT 29/M02 A2986 RMK A01 T02941019  RH  013%=      5-min Rain = 0
KDC1 210226Z 24006KT 29/M02 A2986 RMK A01 T02921021  RH  013%=      5-min Rain = 0
KDC1 210227Z 23006KT 29/M02 A2986 RMK A01 T02921021  RH  013%=      5-min Rain = 0
KDC1 210228Z 24005KT 29/M02 A2986 RMK A01 T02921019  RH  013%=      5-min Rain = 0
KDC1 210229Z 24006KT 29/M01 A2986 RMK A01 T02911014  RH  014%=      5-min Rain = 0
KDC1 210230Z 24007KT 29/M01 A2986 RMK A01 T02891008  RH  015%=      5-min Rain = 0
KDC1 210231Z 24006KT 29/M01 A2986 RMK A01 T02861008  RH  015%=      5-min Rain = 0
KDC1 210232Z 23006KT 28/M02 A2986 RMK A01 T02841017  RH  014%=      5-min Rain = 0
KDC1 210233Z 23005KT 29/M02 A2986 RMK A01 T02851022  RH  013%=      5-min Rain = 0
KDC1 210234Z 23005KT 29/M02 A2986 RMK A01 T02871022  RH  013%=      5-min Rain = 0
KDC1 210235Z 24005KT 29/M02 A2986 RMK A01 T02871023  RH  013%=      5-min Rain = 0
KDC1 210236Z 24005KT 29/M03 A2986 RMK A01 T02881030  RH  012%=      5-min Rain = 0
KDC1 210237Z 25005KT 29/01 A2986 RMK A01 T02870006  RH  016%=      5-min Rain = 0
KDC1 210238Z 24006KT 28/01 A2986 RMK A01 T02800013  RH  018%=      5-min Rain = 0
KDC1 210239Z 24006KT 28/00 A2986 RMK A01 T02750004  RH  017%=      5-min Rain = 0
KDC1 210240Z 25006KT 28/00 A2986 RMK A01 T02750001  RH  017%=      5-min Rain = 0
KDC1 210241Z 24006KT 27/00 A2986 RMK A01 T02740002  RH  017%=      5-min Rain = 0
KDC1 210242Z 24006KT 28/M01 A2986 RMK A01 T02751005  RH  016%=      5-min Rain = 0
KDC1 210243Z 24006KT 28/M00 A2986 RMK A01 T02761004  RH  016%=      5-min Rain = 0
KDC1 210244Z 23006KT 28/M01 A2986 RMK A01 T02761012  RH  015%=      5-min Rain = 0
KDC1 210245Z 24005KT 28/M01 A2986 RMK A01 T02771008  RH  016%=      5-min Rain = 0
KDC1 210246Z 24005KT 28/M01 A2986 RMK A01 T02771013  RH  015%=      5-min Rain = 0
KDC1 210247Z 24006KT 28/M02 A2986 RMK A01 T02781020  RH  014%=      5-min Rain = 0
KDC1 210248Z 24006KT 28/M01 A2986 RMK A01 T02791014  RH  015%=      5-min Rain = 0
KDC1 210249Z 24006KT 28/M02 A2986 RMK A01 T02791022  RH  014%=      5-min Rain = 0
KDC1 210250Z 24005KT 28/M03 A2986 RMK A01 T02801026  RH  013%=      5-min Rain = 0
KDC1 210251Z 23005KT 28/M03 A2986 RMK A01 T02811025  RH  013%=      5-min Rain = 0
KDC1 210252Z 24005KT 28/M02 A2986 RMK A01 T02821022  RH  014%=      5-min Rain = 0
KDC1 210253Z 23005KT 28/M02 A2986 RMK A01 T02821016  RH  014%=      5-min Rain = 0
KDC1 210254Z 24005KT 28/M01 A2986 RMK A01 T02811013  RH  015%=      5-min Rain = 0
KDC1 210255Z 24006KT 28/M01 A2986 RMK A01 T02781014  RH  015%=      5-min Rain = 0
KDC1 210256Z 23006KT 28/M02 A2986 RMK A01 T02761021  RH  014%=      5-min Rain = 0
KDC1 210257Z 24006KT 28/M02 A2986 RMK A01 T02761022  RH  014%=      5-min Rain = 0
KDC1 210258Z 24005KT 28/M02 A2987 RMK A01 T02761023  RH  014%=      5-min Rain = 0
KDC1 210259Z 24006KT 28/M03 A2987 RMK A01 T02761026  RH  014%=      5-min Rain = 0
KDC1 210300Z 24005KT 28/M03 A2987 RMK A01 T02761027  RH  014%=      5-min Rain = 0
KDC1 210301Z 24005KT 28/M03 A2987 RMK A01 T02761027  RH  014%=      5-min Rain = 0
KDC1 210302Z 23005KT 28/M03 A2987 RMK A01 T02761027  RH  014%=      5-min Rain = 0
KDC1 210303Z 23004KT 28/M01 A2987 RMK A01 T02761012  RH  015%=      5-min Rain = 0
KDC1 210304Z 23004KT 27/M01 A2987 RMK A01 T02731007  RH  016%=      5-min Rain = 0
KDC1 210305Z 24005KT 27/M01 A2987 RMK A01 T02711010  RH  016%=      5-min Rain = 0
KDC1 210306Z 24006KT 27/M02 A2987 RMK A01 T02701018  RH  015%=      5-min Rain = 0
KDC1 210307Z 24006KT 27/M02 A2987 RMK A01 T02691022  RH  015%=      5-min Rain = 0
KDC1 210308Z 25006KT 27/M03 A2987 RMK A01 T02691026  RH  014%=      5-min Rain = 0
KDC1 210309Z 24006KT 27/M03 A2987 RMK A01 T02701028  RH  014%=      5-min Rain = 0
KDC1 210310Z 24007KT 27/M03 A2987 RMK A01 T02711028  RH  014%=      5-min Rain = 0
KDC1 210311Z 25007KT 27/M02 A2987 RMK A01 T02721023  RH  014%=      5-min Rain = 0
KDC1 210312Z 25005KT 27/M01 A2987 RMK A01 T02721010  RH  016%=      5-min Rain = 0
KDC1 210313Z 25005KT 27/00 A2987 RMK A01 T02670001  RH  018%=      5-min Rain = 0
KDC1 210314Z 25006KT 26/00 A2987 RMK A01 T02630003  RH  018%=      5-min Rain = 0
KDC1 210315Z 24006KT 26/01 A2987 RMK A01 T02590009  RH  020%=      5-min Rain = 0
KDC1 210316Z 25005KT 26/01 A2987 RMK A01 T02560009  RH  020%=      5-min Rain = 0
KDC1 210317Z 25005KT 25/00 A2987 RMK A01 T02540001  RH  019%=      5-min Rain = 0
KDC1 210318Z 25006KT 25/00 A2987 RMK A01 T02540001  RH  019%=      5-min Rain = 0
KDC1 210319Z 24005KT 25/M00 A2987 RMK A01 T02541001  RH  019%=      5-min Rain = 0
KDC1 210320Z 24005KT 26/M01 A2987 RMK A01 T02551014  RH  017%=      5-min Rain = 0
KDC1 210321Z 24006KT 26/M01 A2987 RMK A01 T02561009  RH  017%=      5-min Rain = 0
KDC1 210322Z 24006KT 26/M01 A2987 RMK A01 T02571009  RH  017%=      5-min Rain = 0
KDC1 210323Z 24006KT 26/M01 A2987 RMK A01 T02571012  RH  017%=      5-min Rain = 0
KDC1 210324Z 24005KT 26/00 A2987 RMK A01 T02580002  RH  019%=      5-min Rain = 0
KDC1 210325Z 24006KT 26/00 A2987 RMK A01 T025800-0  RH  018%=      5-min Rain = 0
KDC1 210326Z 24004KT 26/M00 A2987 RMK A01 T02571004  RH  018%=      5-min Rain = 0
KDC1 210327Z 23004KT 25/02 A2987 RMK A01 T02540024  RH  022%=      5-min Rain = 0
KDC1 210328Z 24004KT 25/02 A2987 RMK A01 T02480018  RH  022%=      5-min Rain = 0
KDC1 210329Z 23004KT 25/01 A2987 RMK A01 T02460012  RH  021%=      5-min Rain = 0
KDC1 210330Z 24005KT 25/00 A2987 RMK A01 T02450000  RH  020%=      5-min Rain = 0
KDC1 210331Z 22003KT 25/M01 A2987 RMK A01 T02481009  RH  018%=      5-min Rain = 0
KDC1 210332Z 23004KT 25/M00 A2987 RMK A01 T02501002  RH  019%=      5-min Rain = 0
KDC1 210333Z 22005KT 25/M01 A2987 RMK A01 T02511009  RH  018%=      5-min Rain = 0
KDC1 210334Z 22005KT 25/M01 A2988 RMK A01 T02531010  RH  018%=      5-min Rain = 0
KDC1 210335Z 23004KT 25/M01 A2988 RMK A01 T02541007  RH  018%=      5-min Rain = 0
KDC1 210336Z 23005KT 25/M02 A2988 RMK A01 T02541016  RH  017%=      5-min Rain = 0
KDC1 210337Z 23005KT 25/M02 A2988 RMK A01 T02541019  RH  016%=      5-min Rain = 0
KDC1 210338Z 23004KT 26/M02 A2988 RMK A01 T02551024  RH  016%=      5-min Rain = 0
KDC1 210339Z 24003KT 26/M03 A2988 RMK A01 T02551025  RH  016%=      5-min Rain = 0
KDC1 210340Z 23002KT 26/M02 A2988 RMK A01 T02551020  RH  016%=      5-min Rain = 0
KDC1 210341Z 24003KT 25/M01 A2988 RMK A01 T02521013  RH  017%=      5-min Rain = 0
KDC1 210342Z 24004KT 25/M01 A2988 RMK A01 T02501006  RH  018%=      5-min Rain = 0
KDC1 210343Z 23004KT 25/M00 A2988 RMK A01 T02481003  RH  019%=      5-min Rain = 0
KDC1 210344Z 24004KT 25/00 A2988 RMK A01 T02460001  RH  020%=      5-min Rain = 0
KDC1 210345Z 23003KT 25/M00 A2988 RMK A01 T02451001  RH  020%=      5-min Rain = 0
KDC1 210346Z 24004KT 24/00 A2988 RMK A01 T02440000  RH  020%=      5-min Rain = 0
KDC1 210347Z 23004KT 24/00 A2988 RMK A01 T02430001  RH  020%=      5-min Rain = 0
KDC1 210348Z 24003KT 24/M00 A2988 RMK A01 T02431002  RH  020%=      5-min Rain = 0
KDC1 210349Z 24005KT 24/M00 A2988 RMK A01 T02431002  RH  020%=      5-min Rain = 0
KDC1 210350Z 24005KT 24/00 A2988 RMK A01 T02420000  RH  020%=      5-min Rain = 0
KDC1 210351Z 24005KT 24/00 A2988 RMK A01 T02420002  RH  021%=      5-min Rain = 0
KDC1 210352Z 24005KT 24/M00 A2988 RMK A01 T02421001  RH  020%=      5-min Rain = 0
KDC1 210353Z 24005KT 24/M01 A2988 RMK A01 T02411005  RH  020%=      5-min Rain = 0
KDC1 210354Z 24004KT 24/M01 A2988 RMK A01 T02411006  RH  019%=      5-min Rain = 0
KDC1 210355Z 25004KT 24/00 A2988 RMK A01 T02410000  RH  020%=      5-min Rain = 0
KDC1 210356Z 24004KT 24/M01 A2988 RMK A01 T02401010  RH  019%=      5-min Rain = 0
KDC1 210357Z 25004KT 24/M01 A2988 RMK A01 T02401005  RH  020%=      5-min Rain = 0
KDC1 210358Z 27004KT 24/01 A2988 RMK A01 T02380009  RH  022%=      5-min Rain = 0
KDC1 210359Z 26004KT 23/01 A2989 RMK A01 T02340014  RH  024%=      5-min Rain = 0
KDC1 210400Z 25005KT 23/01 A2989 RMK A01 T02300011  RH  023%=      5-min Rain = 0
KDC1 210401Z 25006KT 23/01 A2989 RMK A01 T02290006  RH  023%=      5-min Rain = 0
KDC1 210402Z 25006KT 23/00 A2989 RMK A01 T022900-0  RH  022%=      5-min Rain = 0
KDC1 210403Z 24006KT 23/M01 A2989 RMK A01 T02321009  RH  020%=      5-min Rain = 0
KDC1 210404Z 25007KT 24/M01 A2989 RMK A01 T02351007  RH  020%=      5-min Rain = 0
KDC1 210405Z 25007KT 24/M02 A2989 RMK A01 T02391016  RH  018%=      5-min Rain = 0
KDC1 210406Z 25006KT 24/M01 A2989 RMK A01 T02441010  RH  019%=      5-min Rain = 0
KDC1 210407Z 25006KT 25/M01 A2989 RMK A01 T02451010  RH  019%=      5-min Rain = 0
KDC1 210408Z 25006KT 25/M01 A2989 RMK A01 T02451012  RH  018%=      5-min Rain = 0
KDC1 210409Z 25005KT 25/M01 A2989 RMK A01 T02451014  RH  018%=      5-min Rain = 0
KDC1 210410Z 26004KT 24/M01 A2989 RMK A01 T02441009  RH  019%=      5-min Rain = 0
KDC1 210411Z 26005KT 24/01 A2989 RMK A01 T02400007  RH  022%=      5-min Rain = 0
KDC1 210412Z 26006KT 23/01 A2989 RMK A01 T02340009  RH  023%=      5-min Rain = 0
KDC1 210413Z 27006KT 23/01 A2989 RMK A01 T02290009  RH  023%=      5-min Rain = 0
KDC1 210414Z 27007KT 23/00 A2989 RMK A01 T02260003  RH  023%=      5-min Rain = 0
KDC1 210415Z 27007KT 22/M00 A2989 RMK A01 T02241004  RH  022%=      5-min Rain = 0
KDC1 210416Z 26006KT 22/M01 A2989 RMK A01 T02241014  RH  020%=      5-min Rain = 0
KDC1 210417Z 26006KT 22/M02 A2989 RMK A01 T02241018  RH  020%=      5-min Rain = 0
KDC1 210418Z 27005KT 23/M02 A2989 RMK A01 T02261024  RH  019%=      5-min Rain = 0
KDC1 210419Z 26005KT 23/M03 A2989 RMK A01 T02271027  RH  018%=      5-min Rain = 0
KDC1 210420Z 27004KT 23/M03 A2989 RMK A01 T02281028  RH  018%=      5-min Rain = 0
KDC1 210421Z 26004KT 23/M03 A2989 RMK A01 T02281029  RH  018%=      5-min Rain = 0
KDC1 210422Z 27005KT 23/M03 A2989 RMK A01 T02281029  RH  018%=      5-min Rain = 0
KDC1 210423Z 27005KT 23/M03 A2989 RMK A01 T02271028  RH  018%=      5-min Rain = 0
KDC1 210424Z 27005KT 23/M03 A2989 RMK A01 T02261029  RH  018%=      5-min Rain = 0
KDC1 210425Z 27005KT 23/M03 A2989 RMK A01 T02251029  RH  018%=      5-min Rain = 0
KDC1 210426Z 28006KT 22/M03 A2989 RMK A01 T02231027  RH  019%=      5-min Rain = 0
KDC1 210427Z 28006KT 22/M02 A2989 RMK A01 T02211024  RH  019%=      5-min Rain = 0
KDC1 210428Z 28007KT 22/M02 A2989 RMK A01 T02191020  RH  020%=      5-min Rain = 0
KDC1 210429Z 28007KT 22/M01 A2989 RMK A01 T02171014  RH  021%=      5-min Rain = 0
KDC1 210430Z 28007KT 22/M01 A2989 RMK A01 T02151011  RH  022%=      5-min Rain = 0
KDC1 210431Z 28007KT 21/M01 A2989 RMK A01 T02131010  RH  022%=      5-min Rain = 0
KDC1 210432Z 28007KT 21/M01 A2989 RMK A01 T02121009  RH  023%=      5-min Rain = 0
KDC1 210433Z 28008KT 21/M01 A2989 RMK A01 T02111010  RH  023%=      5-min Rain = 0
KDC1 210434Z 28008KT 21/M01 A2989 RMK A01 T02111012  RH  022%=      5-min Rain = 0
KDC1 210435Z 28008KT 21/M02 A2988 RMK A01 T02111015  RH  022%=      5-min Rain = 0
KDC1 210436Z 28008KT 21/M02 A2988 RMK A01 T02121017  RH  021%=      5-min Rain = 0
KDC1 210437Z 28009KT 21/M02 A2988 RMK A01 T02141019  RH  021%=      5-min Rain = 0
KDC1 210438Z 28009KT 22/M02 A2988 RMK A01 T02151022  RH  020%=      5-min Rain = 0
KDC1 210439Z 28009KT 22/M02 A2988 RMK A01 T02171023  RH  020%=      5-min Rain = 0
KDC1 210440Z 28009KT 22/M03 A2988 RMK A01 T02181025  RH  019%=      5-min Rain = 0
KDC1 210441Z 28008KT 22/M03 A2988 RMK A01 T02201027  RH  019%=      5-min Rain = 0
KDC1 210442Z 28008KT 22/M03 A2988 RMK A01 T02221027  RH  019%=      5-min Rain = 0
KDC1 210443Z 28009KT 22/M03 A2988 RMK A01 T02231029  RH  018%=      5-min Rain = 0
KDC1 210444Z 28009KT 22/M03 A2988 RMK A01 T02241029  RH  018%=      5-min Rain = 0
KDC1 210445Z 28009KT 23/M03 A2988 RMK A01 T02251030  RH  018%=      5-min Rain = 0
KDC1 210446Z 28009KT 23/M03 A2988 RMK A01 T02261031  RH  018%=      5-min Rain = 0
KDC1 210447Z 28009KT 23/M03 A2988 RMK A01 T02271031  RH  018%=      5-min Rain = 0
KDC1 210448Z 28009KT 23/M03 A2988 RMK A01 T02271031  RH  018%=      5-min Rain = 0
KDC1 210449Z 28010KT 23/M03 A2988 RMK A01 T02261030  RH  018%=      5-min Rain = 0
KDC1 210450Z 28010KT 23/M03 A2988 RMK A01 T02261031  RH  018%=      5-min Rain = 0
KDC1 210451Z 28010KT 23/M03 A2988 RMK A01 T02261032  RH  018%=      5-min Rain = 0
KDC1 210452Z 27009KT 23/M03 A2988 RMK A01 T02261033  RH  017%=      5-min Rain = 0
KDC1 210453Z 27010KT 23/M03 A2988 RMK A01 T02271034  RH  017%=      5-min Rain = 0
KDC1 210454Z 27010KT 23/M04 A2988 RMK A01 T02281035  RH  017%=      5-min Rain = 0
KDC1 210455Z 27010KT 23/M04 A2988 RMK A01 T02291035  RH  017%=      5-min Rain = 0
KDC1 210456Z 27009KT 23/M04 A2988 RMK A01 T02301035  RH  017%=      5-min Rain = 0
KDC1 210457Z 27008KT 23/M04 A2988 RMK A01 T02301035  RH  017%=      5-min Rain = 0
KDC1 210458Z 27009KT 23/M04 A2988 RMK A01 T02311035  RH  017%=      5-min Rain = 0
KDC1 210459Z 27008KT 23/M04 A2988 RMK A01 T02321036  RH  017%=      5-min Rain = 0

Page generated in 0.124 seconds.